<?xml version="1.0" encoding="UTF-8" standalone="no" ?><gpx xmlns="http://www.topografix.com/GPX/1/1" creator="Geosync GPX Converter" version="1.1" xmlns:xsi="http://www.w3.org/2001/XMLSchema-instance" xsi:schemaLocation="http://www.topografix.com/GPX/1/1 http://www.topografix.com/GPX/1/1/gpx.xsd"><metadata><link> href="http://www.oriem.com"></link><link> href="http://www.atech.hk"></link></metadata><trk><name>trk00000_2015-5-14</name><trkseg><trkpt lat="49.725566667" lon="11.910566667"><ele>441</ele><time>2015-05-14T11:42:27Z</time></trkpt></trkseg><trkseg><trkpt lat="49.725566667" lon="11.910583333"><ele>444</ele><time>2015-05-14T11:42:48Z</time></trkpt><trkpt lat="49.725583333" lon="11.910733333"><ele>442</ele><time>2015-05-14T11:42:58Z</time></trkpt><trkpt lat="49.725533333" lon="11.910933333"><ele>441</ele><time>2015-05-14T11:43:08Z</time></trkpt><trkpt lat="49.725533333" lon="11.911133333"><ele>440</ele><time>2015-05-14T11:43:18Z</time></trkpt><trkpt lat="49.725500000" lon="11.911333333"><ele>440</ele><time>2015-05-14T11:43:28Z</time></trkpt><trkpt lat="49.725500000" lon="11.911550000"><ele>437</ele><time>2015-05-14T11:43:38Z</time></trkpt><trkpt lat="49.725483333" lon="11.911766667"><ele>437</ele><time>2015-05-14T11:43:48Z</time></trkpt><trkpt lat="49.725483333" lon="11.911950000"><ele>436</ele><time>2015-05-14T11:43:58Z</time></trkpt><trkpt lat="49.725483333" lon="11.912166667"><ele>437</ele><time>2015-05-14T11:44:08Z</time></trkpt><trkpt lat="49.725483333" lon="11.912366667"><ele>440</ele><time>2015-05-14T11:44:18Z</time></trkpt><trkpt lat="49.725500000" lon="11.912566667"><ele>439</ele><time>2015-05-14T11:44:28Z</time></trkpt><trkpt lat="49.725500000" lon="11.912766667"><ele>439</ele><time>2015-05-14T11:44:38Z</time></trkpt><trkpt lat="49.725500000" lon="11.912950000"><ele>440</ele><time>2015-05-14T11:44:48Z</time></trkpt><trkpt lat="49.725483333" lon="11.913166667"><ele>440</ele><time>2015-05-14T11:44:58Z</time></trkpt><trkpt lat="49.725483333" lon="11.913366667"><ele>438</ele><time>2015-05-14T11:45:08Z</time></trkpt><trkpt lat="49.725466667" lon="11.913583333"><ele>436</ele><time>2015-05-14T11:45:18Z</time></trkpt><trkpt lat="49.725466667" lon="11.913766667"><ele>436</ele><time>2015-05-14T11:45:28Z</time></trkpt><trkpt lat="49.725450000" lon="11.913966667"><ele>438</ele><time>2015-05-14T11:45:38Z</time></trkpt><trkpt lat="49.725466667" lon="11.914183333"><ele>437</ele><time>2015-05-14T11:45:48Z</time></trkpt><trkpt lat="49.725483333" lon="11.914383333"><ele>435</ele><time>2015-05-14T11:45:58Z</time></trkpt><trkpt lat="49.725483333" lon="11.914600000"><ele>432</ele><time>2015-05-14T11:46:08Z</time></trkpt><trkpt lat="49.725516667" lon="11.914800000"><ele>431</ele><time>2015-05-14T11:46:18Z</time></trkpt><trkpt lat="49.725416667" lon="11.914916667"><ele>432</ele><time>2015-05-14T11:46:28Z</time></trkpt><trkpt lat="49.725300000" lon="11.914983333"><ele>438</ele><time>2015-05-14T11:46:38Z</time></trkpt><trkpt lat="49.725183333" lon="11.915083333"><ele>446</ele><time>2015-05-14T11:46:48Z</time></trkpt><trkpt lat="49.725050000" lon="11.915166667"><ele>448</ele><time>2015-05-14T11:46:58Z</time></trkpt><trkpt lat="49.724933333" lon="11.915266667"><ele>456</ele><time>2015-05-14T11:47:08Z</time></trkpt><trkpt lat="49.724833333" lon="11.915266667"><ele>444</ele><time>2015-05-14T11:47:18Z</time></trkpt><trkpt lat="49.724700000" lon="11.915283333"><ele>438</ele><time>2015-05-14T11:47:28Z</time></trkpt><trkpt lat="49.724583333" lon="11.915366667"><ele>439</ele><time>2015-05-14T11:47:38Z</time></trkpt><trkpt lat="49.724466667" lon="11.915416667"><ele>442</ele><time>2015-05-14T11:47:48Z</time></trkpt><trkpt lat="49.724350000" lon="11.915450000"><ele>445</ele><time>2015-05-14T11:47:58Z</time></trkpt><trkpt lat="49.724250000" lon="11.915500000"><ele>446</ele><time>2015-05-14T11:48:08Z</time></trkpt><trkpt lat="49.724133333" lon="11.915533333"><ele>435</ele><time>2015-05-14T11:48:18Z</time></trkpt><trkpt lat="49.724016667" lon="11.915633333"><ele>441</ele><time>2015-05-14T11:48:28Z</time></trkpt><trkpt lat="49.723933333" lon="11.915750000"><ele>446</ele><time>2015-05-14T11:48:38Z</time></trkpt><trkpt lat="49.723816667" lon="11.915833333"><ele>452</ele><time>2015-05-14T11:48:48Z</time></trkpt><trkpt lat="49.723716667" lon="11.915883333"><ele>443</ele><time>2015-05-14T11:48:58Z</time></trkpt><trkpt lat="49.723666667" lon="11.916000000"><ele>438</ele><time>2015-05-14T11:49:08Z</time></trkpt><trkpt lat="49.723733333" lon="11.916183333"><ele>438</ele><time>2015-05-14T11:49:18Z</time></trkpt><trkpt lat="49.723733333" lon="11.916350000"><ele>433</ele><time>2015-05-14T11:49:28Z</time></trkpt><trkpt lat="49.723783333" lon="11.916516667"><ele>432</ele><time>2015-05-14T11:49:38Z</time></trkpt><trkpt lat="49.723816667" lon="11.916700000"><ele>430</ele><time>2015-05-14T11:49:48Z</time></trkpt><trkpt lat="49.723883333" lon="11.916866667"><ele>434</ele><time>2015-05-14T11:49:58Z</time></trkpt><trkpt lat="49.723950000" lon="11.917050000"><ele>435</ele><time>2015-05-14T11:50:08Z</time></trkpt><trkpt lat="49.723983333" lon="11.917233333"><ele>435</ele><time>2015-05-14T11:50:18Z</time></trkpt><trkpt lat="49.724000000" lon="11.917416667"><ele>431</ele><time>2015-05-14T11:50:28Z</time></trkpt><trkpt lat="49.724033333" lon="11.917583333"><ele>432</ele><time>2015-05-14T11:50:38Z</time></trkpt><trkpt lat="49.724100000" lon="11.917766667"><ele>434</ele><time>2015-05-14T11:50:48Z</time></trkpt><trkpt lat="49.724100000" lon="11.917933333"><ele>435</ele><time>2015-05-14T11:50:58Z</time></trkpt><trkpt lat="49.724083333" lon="11.918133333"><ele>435</ele><time>2015-05-14T11:51:08Z</time></trkpt><trkpt lat="49.724083333" lon="11.918316667"><ele>437</ele><time>2015-05-14T11:51:18Z</time></trkpt><trkpt lat="49.724050000" lon="11.918500000"><ele>440</ele><time>2015-05-14T11:51:28Z</time></trkpt><trkpt lat="49.724066667" lon="11.918700000"><ele>444</ele><time>2015-05-14T11:51:38Z</time></trkpt><trkpt lat="49.724083333" lon="11.918883333"><ele>445</ele><time>2015-05-14T11:51:48Z</time></trkpt><trkpt lat="49.724083333" lon="11.919083333"><ele>447</ele><time>2015-05-14T11:51:58Z</time></trkpt><trkpt lat="49.724116667" lon="11.919266667"><ele>451</ele><time>2015-05-14T11:52:08Z</time></trkpt><trkpt lat="49.724100000" lon="11.919450000"><ele>452</ele><time>2015-05-14T11:52:18Z</time></trkpt><trkpt lat="49.724066667" lon="11.919700000"><ele>452</ele><time>2015-05-14T11:52:28Z</time></trkpt><trkpt lat="49.724050000" lon="11.919866667"><ele>447</ele><time>2015-05-14T11:52:38Z</time></trkpt><trkpt lat="49.723966667" lon="11.920033333"><ele>450</ele><time>2015-05-14T11:52:48Z</time></trkpt><trkpt lat="49.723933333" lon="11.920200000"><ele>447</ele><time>2015-05-14T11:52:58Z</time></trkpt><trkpt lat="49.723933333" lon="11.920366667"><ele>449</ele><time>2015-05-14T11:53:08Z</time></trkpt><trkpt lat="49.723900000" lon="11.920566667"><ele>449</ele><time>2015-05-14T11:53:18Z</time></trkpt><trkpt lat="49.723933333" lon="11.920733333"><ele>453</ele><time>2015-05-14T11:53:28Z</time></trkpt><trkpt lat="49.723950000" lon="11.920866667"><ele>456</ele><time>2015-05-14T11:53:38Z</time></trkpt><trkpt lat="49.723966667" lon="11.921066667"><ele>457</ele><time>2015-05-14T11:53:48Z</time></trkpt><trkpt lat="49.723916667" lon="11.921333333"><ele>457</ele><time>2015-05-14T11:53:58Z</time></trkpt><trkpt lat="49.723916667" lon="11.921500000"><ele>454</ele><time>2015-05-14T11:54:08Z</time></trkpt><trkpt lat="49.723866667" lon="11.921716667"><ele>454</ele><time>2015-05-14T11:54:18Z</time></trkpt><trkpt lat="49.723883333" lon="11.921900000"><ele>456</ele><time>2015-05-14T11:54:28Z</time></trkpt><trkpt lat="49.723916667" lon="11.922116667"><ele>455</ele><time>2015-05-14T11:54:38Z</time></trkpt><trkpt lat="49.723866667" lon="11.922333333"><ele>455</ele><time>2015-05-14T11:54:48Z</time></trkpt><trkpt lat="49.723900000" lon="11.922450000"><ele>454</ele><time>2015-05-14T11:54:58Z</time></trkpt><trkpt lat="49.724000000" lon="11.922683333"><ele>461</ele><time>2015-05-14T11:55:08Z</time></trkpt><trkpt lat="49.723950000" lon="11.922866667"><ele>462</ele><time>2015-05-14T11:55:18Z</time></trkpt><trkpt lat="49.724083333" lon="11.923083333"><ele>464</ele><time>2015-05-14T11:55:28Z</time></trkpt><trkpt lat="49.724050000" lon="11.923283333"><ele>462</ele><time>2015-05-14T11:55:38Z</time></trkpt><trkpt lat="49.724016667" lon="11.923483333"><ele>460</ele><time>2015-05-14T11:55:48Z</time></trkpt><trkpt lat="49.724050000" lon="11.923650000"><ele>459</ele><time>2015-05-14T11:55:58Z</time></trkpt><trkpt lat="49.724000000" lon="11.923916667"><ele>457</ele><time>2015-05-14T11:56:08Z</time></trkpt><trkpt lat="49.724000000" lon="11.924066667"><ele>457</ele><time>2015-05-14T11:56:18Z</time></trkpt><trkpt lat="49.724000000" lon="11.924200000"><ele>456</ele><time>2015-05-14T11:56:28Z</time></trkpt><trkpt lat="49.723983333" lon="11.924400000"><ele>454</ele><time>2015-05-14T11:56:38Z</time></trkpt><trkpt lat="49.724000000" lon="11.924616667"><ele>460</ele><time>2015-05-14T11:56:48Z</time></trkpt><trkpt lat="49.724000000" lon="11.924816667"><ele>458</ele><time>2015-05-14T11:56:58Z</time></trkpt><trkpt lat="49.724050000" lon="11.925000000"><ele>456</ele><time>2015-05-14T11:57:08Z</time></trkpt><trkpt lat="49.724100000" lon="11.925200000"><ele>456</ele><time>2015-05-14T11:57:18Z</time></trkpt><trkpt lat="49.724133333" lon="11.925416667"><ele>452</ele><time>2015-05-14T11:57:28Z</time></trkpt><trkpt lat="49.724150000" lon="11.925583333"><ele>447</ele><time>2015-05-14T11:57:38Z</time></trkpt><trkpt lat="49.724233333" lon="11.925766667"><ele>454</ele><time>2015-05-14T11:57:48Z</time></trkpt><trkpt lat="49.724300000" lon="11.925916667"><ele>455</ele><time>2015-05-14T11:57:58Z</time></trkpt><trkpt lat="49.724400000" lon="11.926116667"><ele>456</ele><time>2015-05-14T11:58:08Z</time></trkpt><trkpt lat="49.724466667" lon="11.926300000"><ele>456</ele><time>2015-05-14T11:58:18Z</time></trkpt><trkpt lat="49.724533333" lon="11.926500000"><ele>455</ele><time>2015-05-14T11:58:28Z</time></trkpt><trkpt lat="49.724600000" lon="11.926683333"><ele>459</ele><time>2015-05-14T11:58:38Z</time></trkpt><trkpt lat="49.724633333" lon="11.926816667"><ele>457</ele><time>2015-05-14T11:58:48Z</time></trkpt><trkpt lat="49.724700000" lon="11.927000000"><ele>456</ele><time>2015-05-14T11:58:58Z</time></trkpt><trkpt lat="49.724800000" lon="11.927200000"><ele>457</ele><time>2015-05-14T11:59:08Z</time></trkpt><trkpt lat="49.724866667" lon="11.927350000"><ele>458</ele><time>2015-05-14T11:59:18Z</time></trkpt><trkpt lat="49.724916667" lon="11.927566667"><ele>455</ele><time>2015-05-14T11:59:28Z</time></trkpt><trkpt lat="49.725000000" lon="11.927750000"><ele>457</ele><time>2015-05-14T11:59:38Z</time></trkpt><trkpt lat="49.725016667" lon="11.927883333"><ele>456</ele><time>2015-05-14T11:59:48Z</time></trkpt><trkpt lat="49.725150000" lon="11.928100000"><ele>459</ele><time>2015-05-14T11:59:58Z</time></trkpt><trkpt lat="49.725200000" lon="11.928266667"><ele>458</ele><time>2015-05-14T12:00:08Z</time></trkpt><trkpt lat="49.725266667" lon="11.928450000"><ele>458</ele><time>2015-05-14T12:00:18Z</time></trkpt><trkpt lat="49.725350000" lon="11.928616667"><ele>459</ele><time>2015-05-14T12:00:28Z</time></trkpt><trkpt lat="49.725400000" lon="11.928816667"><ele>455</ele><time>2015-05-14T12:00:38Z</time></trkpt><trkpt lat="49.725466667" lon="11.928983333"><ele>458</ele><time>2015-05-14T12:00:48Z</time></trkpt><trkpt lat="49.725500000" lon="11.929200000"><ele>455</ele><time>2015-05-14T12:00:58Z</time></trkpt><trkpt lat="49.725566667" lon="11.929350000"><ele>451</ele><time>2015-05-14T12:01:08Z</time></trkpt><trkpt lat="49.725616667" lon="11.929566667"><ele>449</ele><time>2015-05-14T12:01:18Z</time></trkpt><trkpt lat="49.725666667" lon="11.929766667"><ele>448</ele><time>2015-05-14T12:01:28Z</time></trkpt><trkpt lat="49.725750000" lon="11.929933333"><ele>446</ele><time>2015-05-14T12:01:38Z</time></trkpt><trkpt lat="49.725816667" lon="11.930100000"><ele>445</ele><time>2015-05-14T12:01:48Z</time></trkpt><trkpt lat="49.725883333" lon="11.930283333"><ele>443</ele><time>2015-05-14T12:01:58Z</time></trkpt><trkpt lat="49.725950000" lon="11.930466667"><ele>442</ele><time>2015-05-14T12:02:08Z</time></trkpt><trkpt lat="49.726016667" lon="11.930616667"><ele>445</ele><time>2015-05-14T12:02:18Z</time></trkpt><trkpt lat="49.726050000" lon="11.930833333"><ele>441</ele><time>2015-05-14T12:02:28Z</time></trkpt><trkpt lat="49.726183333" lon="11.931000000"><ele>448</ele><time>2015-05-14T12:02:38Z</time></trkpt><trkpt lat="49.726250000" lon="11.931133333"><ele>451</ele><time>2015-05-14T12:02:48Z</time></trkpt><trkpt lat="49.726250000" lon="11.931366667"><ele>446</ele><time>2015-05-14T12:02:58Z</time></trkpt><trkpt lat="49.726300000" lon="11.931500000"><ele>446</ele><time>2015-05-14T12:03:08Z</time></trkpt><trkpt lat="49.726333333" lon="11.931450000"><ele>441</ele><time>2015-05-14T12:03:18Z</time></trkpt><trkpt lat="49.726300000" lon="11.931416667"><ele>445</ele><time>2015-05-14T12:03:28Z</time></trkpt><trkpt lat="49.726300000" lon="11.931383333"><ele>447</ele><time>2015-05-14T12:03:38Z</time></trkpt><trkpt lat="49.726400000" lon="11.931633333"><ele>447</ele><time>2015-05-14T12:03:48Z</time></trkpt><trkpt lat="49.726450000" lon="11.931850000"><ele>445</ele><time>2015-05-14T12:03:58Z</time></trkpt><trkpt lat="49.726516667" lon="11.932016667"><ele>445</ele><time>2015-05-14T12:04:08Z</time></trkpt><trkpt lat="49.726600000" lon="11.932216667"><ele>445</ele><time>2015-05-14T12:04:18Z</time></trkpt><trkpt lat="49.726666667" lon="11.932350000"><ele>449</ele><time>2015-05-14T12:04:28Z</time></trkpt><trkpt lat="49.726716667" lon="11.932533333"><ele>450</ele><time>2015-05-14T12:04:38Z</time></trkpt><trkpt lat="49.726700000" lon="11.932766667"><ele>448</ele><time>2015-05-14T12:04:48Z</time></trkpt><trkpt lat="49.726683333" lon="11.932933333"><ele>447</ele><time>2015-05-14T12:04:58Z</time></trkpt><trkpt lat="49.726716667" lon="11.933133333"><ele>444</ele><time>2015-05-14T12:05:08Z</time></trkpt><trkpt lat="49.726766667" lon="11.933383333"><ele>444</ele><time>2015-05-14T12:05:18Z</time></trkpt><trkpt lat="49.726800000" lon="11.933550000"><ele>444</ele><time>2015-05-14T12:05:28Z</time></trkpt><trkpt lat="49.726833333" lon="11.933733333"><ele>445</ele><time>2015-05-14T12:05:38Z</time></trkpt><trkpt lat="49.726816667" lon="11.933983333"><ele>445</ele><time>2015-05-14T12:05:48Z</time></trkpt><trkpt lat="49.726833333" lon="11.934183333"><ele>442</ele><time>2015-05-14T12:05:58Z</time></trkpt><trkpt lat="49.726850000" lon="11.934350000"><ele>441</ele><time>2015-05-14T12:06:08Z</time></trkpt><trkpt lat="49.726833333" lon="11.934550000"><ele>437</ele><time>2015-05-14T12:06:18Z</time></trkpt><trkpt lat="49.726900000" lon="11.934750000"><ele>438</ele><time>2015-05-14T12:06:28Z</time></trkpt><trkpt lat="49.726916667" lon="11.934950000"><ele>435</ele><time>2015-05-14T12:06:38Z</time></trkpt><trkpt lat="49.726883333" lon="11.935150000"><ele>435</ele><time>2015-05-14T12:06:48Z</time></trkpt><trkpt lat="49.726900000" lon="11.935350000"><ele>431</ele><time>2015-05-14T12:06:58Z</time></trkpt><trkpt lat="49.726916667" lon="11.935516667"><ele>438</ele><time>2015-05-14T12:07:08Z</time></trkpt><trkpt lat="49.726933333" lon="11.935716667"><ele>436</ele><time>2015-05-14T12:07:18Z</time></trkpt><trkpt lat="49.726950000" lon="11.935916667"><ele>442</ele><time>2015-05-14T12:07:28Z</time></trkpt><trkpt lat="49.726983333" lon="11.936116667"><ele>441</ele><time>2015-05-14T12:07:38Z</time></trkpt><trkpt lat="49.727016667" lon="11.936333333"><ele>450</ele><time>2015-05-14T12:07:48Z</time></trkpt><trkpt lat="49.727033333" lon="11.936550000"><ele>445</ele><time>2015-05-14T12:07:58Z</time></trkpt><trkpt lat="49.727016667" lon="11.936766667"><ele>444</ele><time>2015-05-14T12:08:08Z</time></trkpt><trkpt lat="49.727066667" lon="11.936916667"><ele>445</ele><time>2015-05-14T12:08:18Z</time></trkpt><trkpt lat="49.727100000" lon="11.936983333"><ele>440</ele><time>2015-05-14T12:08:28Z</time></trkpt><trkpt lat="49.727066667" lon="11.937066667"><ele>434</ele><time>2015-05-14T12:08:38Z</time></trkpt><trkpt lat="49.727100000" lon="11.937250000"><ele>443</ele><time>2015-05-14T12:08:48Z</time></trkpt><trkpt lat="49.727100000" lon="11.937416667"><ele>442</ele><time>2015-05-14T12:08:58Z</time></trkpt><trkpt lat="49.727133333" lon="11.937550000"><ele>444</ele><time>2015-05-14T12:09:08Z</time></trkpt><trkpt lat="49.727166667" lon="11.937783333"><ele>446</ele><time>2015-05-14T12:09:18Z</time></trkpt><trkpt lat="49.727183333" lon="11.938016667"><ele>441</ele><time>2015-05-14T12:09:28Z</time></trkpt><trkpt lat="49.727183333" lon="11.938200000"><ele>440</ele><time>2015-05-14T12:09:38Z</time></trkpt><trkpt lat="49.727166667" lon="11.938400000"><ele>442</ele><time>2015-05-14T12:09:48Z</time></trkpt><trkpt lat="49.727166667" lon="11.938633333"><ele>443</ele><time>2015-05-14T12:09:58Z</time></trkpt><trkpt lat="49.727166667" lon="11.938850000"><ele>440</ele><time>2015-05-14T12:10:08Z</time></trkpt><trkpt lat="49.727166667" lon="11.939050000"><ele>438</ele><time>2015-05-14T12:10:18Z</time></trkpt><trkpt lat="49.727183333" lon="11.939266667"><ele>439</ele><time>2015-05-14T12:10:28Z</time></trkpt><trkpt lat="49.727183333" lon="11.939483333"><ele>446</ele><time>2015-05-14T12:10:38Z</time></trkpt><trkpt lat="49.727183333" lon="11.939683333"><ele>448</ele><time>2015-05-14T12:10:48Z</time></trkpt><trkpt lat="49.727183333" lon="11.939900000"><ele>452</ele><time>2015-05-14T12:10:58Z</time></trkpt><trkpt lat="49.727183333" lon="11.940116667"><ele>454</ele><time>2015-05-14T12:11:08Z</time></trkpt><trkpt lat="49.727150000" lon="11.940333333"><ele>458</ele><time>2015-05-14T12:11:18Z</time></trkpt><trkpt lat="49.727183333" lon="11.940550000"><ele>464</ele><time>2015-05-14T12:11:28Z</time></trkpt><trkpt lat="49.727200000" lon="11.940766667"><ele>467</ele><time>2015-05-14T12:11:38Z</time></trkpt><trkpt lat="49.727133333" lon="11.940950000"><ele>454</ele><time>2015-05-14T12:11:48Z</time></trkpt><trkpt lat="49.727150000" lon="11.941166667"><ele>449</ele><time>2015-05-14T12:11:58Z</time></trkpt><trkpt lat="49.727150000" lon="11.941383333"><ele>455</ele><time>2015-05-14T12:12:08Z</time></trkpt><trkpt lat="49.727150000" lon="11.941550000"><ele>452</ele><time>2015-05-14T12:12:18Z</time></trkpt><trkpt lat="49.727150000" lon="11.941783333"><ele>449</ele><time>2015-05-14T12:12:28Z</time></trkpt><trkpt lat="49.727150000" lon="11.941966667"><ele>445</ele><time>2015-05-14T12:12:38Z</time></trkpt><trkpt lat="49.727133333" lon="11.942200000"><ele>446</ele><time>2015-05-14T12:12:48Z</time></trkpt><trkpt lat="49.727116667" lon="11.942400000"><ele>445</ele><time>2015-05-14T12:12:58Z</time></trkpt><trkpt lat="49.727116667" lon="11.942583333"><ele>448</ele><time>2015-05-14T12:13:08Z</time></trkpt><trkpt lat="49.727116667" lon="11.942800000"><ele>447</ele><time>2015-05-14T12:13:18Z</time></trkpt><trkpt lat="49.727133333" lon="11.943000000"><ele>448</ele><time>2015-05-14T12:13:28Z</time></trkpt><trkpt lat="49.727116667" lon="11.943216667"><ele>446</ele><time>2015-05-14T12:13:38Z</time></trkpt><trkpt lat="49.727150000" lon="11.943433333"><ele>441</ele><time>2015-05-14T12:13:48Z</time></trkpt><trkpt lat="49.727133333" lon="11.943600000"><ele>441</ele><time>2015-05-14T12:13:58Z</time></trkpt><trkpt lat="49.727100000" lon="11.943800000"><ele>440</ele><time>2015-05-14T12:14:08Z</time></trkpt><trkpt lat="49.727133333" lon="11.944033333"><ele>440</ele><time>2015-05-14T12:14:18Z</time></trkpt><trkpt lat="49.727100000" lon="11.944200000"><ele>440</ele><time>2015-05-14T12:14:28Z</time></trkpt><trkpt lat="49.727166667" lon="11.944150000"><ele>434</ele><time>2015-05-14T12:14:38Z</time></trkpt><trkpt lat="49.727250000" lon="11.944050000"><ele>435</ele><time>2015-05-14T12:14:48Z</time></trkpt><trkpt lat="49.727350000" lon="11.944016667"><ele>435</ele><time>2015-05-14T12:14:58Z</time></trkpt><trkpt lat="49.727500000" lon="11.943933333"><ele>436</ele><time>2015-05-14T12:15:08Z</time></trkpt><trkpt lat="49.727616667" lon="11.943933333"><ele>439</ele><time>2015-05-14T12:15:18Z</time></trkpt><trkpt lat="49.727783333" lon="11.943916667"><ele>441</ele><time>2015-05-14T12:15:28Z</time></trkpt><trkpt lat="49.727916667" lon="11.943900000"><ele>436</ele><time>2015-05-14T12:15:38Z</time></trkpt><trkpt lat="49.728033333" lon="11.943850000"><ele>431</ele><time>2015-05-14T12:15:48Z</time></trkpt><trkpt lat="49.728200000" lon="11.943833333"><ele>431</ele><time>2015-05-14T12:15:58Z</time></trkpt><trkpt lat="49.728333333" lon="11.943833333"><ele>427</ele><time>2015-05-14T12:16:08Z</time></trkpt><trkpt lat="49.728483333" lon="11.943783333"><ele>424</ele><time>2015-05-14T12:16:18Z</time></trkpt><trkpt lat="49.728616667" lon="11.943750000"><ele>421</ele><time>2015-05-14T12:16:28Z</time></trkpt><trkpt lat="49.728733333" lon="11.943766667"><ele>423</ele><time>2015-05-14T12:16:38Z</time></trkpt><trkpt lat="49.728866667" lon="11.943733333"><ele>420</ele><time>2015-05-14T12:16:48Z</time></trkpt><trkpt lat="49.729033333" lon="11.943750000"><ele>419</ele><time>2015-05-14T12:16:58Z</time></trkpt><trkpt lat="49.729050000" lon="11.943700000"><ele>422</ele><time>2015-05-14T12:17:08Z</time></trkpt><trkpt lat="49.729050000" lon="11.943733333"><ele>422</ele><time>2015-05-14T12:17:18Z</time></trkpt><trkpt lat="49.729066667" lon="11.943733333"><ele>423</ele><time>2015-05-14T12:17:28Z</time></trkpt><trkpt lat="49.729150000" lon="11.943733333"><ele>422</ele><time>2015-05-14T12:17:38Z</time></trkpt><trkpt lat="49.729266667" lon="11.943716667"><ele>424</ele><time>2015-05-14T12:17:48Z</time></trkpt><trkpt lat="49.729366667" lon="11.943716667"><ele>422</ele><time>2015-05-14T12:17:58Z</time></trkpt><trkpt lat="49.729500000" lon="11.943633333"><ele>423</ele><time>2015-05-14T12:18:08Z</time></trkpt><trkpt lat="49.729616667" lon="11.943616667"><ele>422</ele><time>2015-05-14T12:18:18Z</time></trkpt><trkpt lat="49.729733333" lon="11.943566667"><ele>421</ele><time>2015-05-14T12:18:28Z</time></trkpt><trkpt lat="49.729850000" lon="11.943516667"><ele>422</ele><time>2015-05-14T12:18:38Z</time></trkpt><trkpt lat="49.729983333" lon="11.943533333"><ele>424</ele><time>2015-05-14T12:18:48Z</time></trkpt><trkpt lat="49.730166667" lon="11.943550000"><ele>423</ele><time>2015-05-14T12:18:58Z</time></trkpt><trkpt lat="49.730266667" lon="11.943500000"><ele>419</ele><time>2015-05-14T12:19:08Z</time></trkpt><trkpt lat="49.730383333" lon="11.943450000"><ele>418</ele><time>2015-05-14T12:19:18Z</time></trkpt><trkpt lat="49.730500000" lon="11.943400000"><ele>417</ele><time>2015-05-14T12:19:28Z</time></trkpt><trkpt lat="49.730666667" lon="11.943383333"><ele>419</ele><time>2015-05-14T12:19:38Z</time></trkpt><trkpt lat="49.730783333" lon="11.943316667"><ele>420</ele><time>2015-05-14T12:19:48Z</time></trkpt><trkpt lat="49.730916667" lon="11.943283333"><ele>419</ele><time>2015-05-14T12:19:58Z</time></trkpt><trkpt lat="49.731033333" lon="11.943233333"><ele>422</ele><time>2015-05-14T12:20:08Z</time></trkpt><trkpt lat="49.731150000" lon="11.943200000"><ele>423</ele><time>2015-05-14T12:20:18Z</time></trkpt><trkpt lat="49.731300000" lon="11.943183333"><ele>425</ele><time>2015-05-14T12:20:28Z</time></trkpt><trkpt lat="49.731400000" lon="11.943100000"><ele>425</ele><time>2015-05-14T12:20:38Z</time></trkpt><trkpt lat="49.731516667" lon="11.943066667"><ele>427</ele><time>2015-05-14T12:20:48Z</time></trkpt><trkpt lat="49.731666667" lon="11.943050000"><ele>432</ele><time>2015-05-14T12:20:58Z</time></trkpt><trkpt lat="49.731800000" lon="11.942966667"><ele>434</ele><time>2015-05-14T12:21:08Z</time></trkpt><trkpt lat="49.731950000" lon="11.942966667"><ele>435</ele><time>2015-05-14T12:21:18Z</time></trkpt><trkpt lat="49.732066667" lon="11.942916667"><ele>436</ele><time>2015-05-14T12:21:28Z</time></trkpt><trkpt lat="49.732183333" lon="11.942850000"><ele>436</ele><time>2015-05-14T12:21:38Z</time></trkpt><trkpt lat="49.732316667" lon="11.942833333"><ele>433</ele><time>2015-05-14T12:21:48Z</time></trkpt><trkpt lat="49.732450000" lon="11.942816667"><ele>431</ele><time>2015-05-14T12:21:58Z</time></trkpt><trkpt lat="49.732566667" lon="11.942766667"><ele>432</ele><time>2015-05-14T12:22:08Z</time></trkpt><trkpt lat="49.732716667" lon="11.942700000"><ele>431</ele><time>2015-05-14T12:22:18Z</time></trkpt><trkpt lat="49.732833333" lon="11.942650000"><ele>434</ele><time>2015-05-14T12:22:28Z</time></trkpt><trkpt lat="49.732966667" lon="11.942650000"><ele>435</ele><time>2015-05-14T12:22:38Z</time></trkpt><trkpt lat="49.733100000" lon="11.942583333"><ele>433</ele><time>2015-05-14T12:22:48Z</time></trkpt><trkpt lat="49.733233333" lon="11.942600000"><ele>431</ele><time>2015-05-14T12:22:58Z</time></trkpt><trkpt lat="49.733366667" lon="11.942550000"><ele>432</ele><time>2015-05-14T12:23:08Z</time></trkpt><trkpt lat="49.733483333" lon="11.942566667"><ele>435</ele><time>2015-05-14T12:23:18Z</time></trkpt><trkpt lat="49.733600000" lon="11.942533333"><ele>433</ele><time>2015-05-14T12:23:28Z</time></trkpt><trkpt lat="49.733733333" lon="11.942433333"><ele>436</ele><time>2015-05-14T12:23:38Z</time></trkpt><trkpt lat="49.733883333" lon="11.942416667"><ele>438</ele><time>2015-05-14T12:23:48Z</time></trkpt><trkpt lat="49.734000000" lon="11.942400000"><ele>440</ele><time>2015-05-14T12:23:58Z</time></trkpt><trkpt lat="49.734116667" lon="11.942350000"><ele>437</ele><time>2015-05-14T12:24:08Z</time></trkpt><trkpt lat="49.734233333" lon="11.942283333"><ele>437</ele><time>2015-05-14T12:24:18Z</time></trkpt><trkpt lat="49.734350000" lon="11.942300000"><ele>437</ele><time>2015-05-14T12:24:28Z</time></trkpt><trkpt lat="49.734483333" lon="11.942283333"><ele>435</ele><time>2015-05-14T12:24:38Z</time></trkpt><trkpt lat="49.734600000" lon="11.942233333"><ele>435</ele><time>2015-05-14T12:24:48Z</time></trkpt><trkpt lat="49.734750000" lon="11.942200000"><ele>431</ele><time>2015-05-14T12:24:58Z</time></trkpt><trkpt lat="49.734866667" lon="11.942200000"><ele>428</ele><time>2015-05-14T12:25:08Z</time></trkpt><trkpt lat="49.734983333" lon="11.942133333"><ele>427</ele><time>2015-05-14T12:25:18Z</time></trkpt><trkpt lat="49.735100000" lon="11.942116667"><ele>428</ele><time>2015-05-14T12:25:28Z</time></trkpt><trkpt lat="49.735266667" lon="11.942116667"><ele>427</ele><time>2015-05-14T12:25:38Z</time></trkpt><trkpt lat="49.735383333" lon="11.942133333"><ele>424</ele><time>2015-05-14T12:25:48Z</time></trkpt><trkpt lat="49.735483333" lon="11.942083333"><ele>424</ele><time>2015-05-14T12:25:58Z</time></trkpt><trkpt lat="49.735633333" lon="11.942050000"><ele>425</ele><time>2015-05-14T12:26:08Z</time></trkpt><trkpt lat="49.735750000" lon="11.942016667"><ele>424</ele><time>2015-05-14T12:26:18Z</time></trkpt><trkpt lat="49.735900000" lon="11.941966667"><ele>425</ele><time>2015-05-14T12:26:28Z</time></trkpt><trkpt lat="49.736016667" lon="11.941966667"><ele>423</ele><time>2015-05-14T12:26:38Z</time></trkpt><trkpt lat="49.736133333" lon="11.941933333"><ele>421</ele><time>2015-05-14T12:26:48Z</time></trkpt><trkpt lat="49.736250000" lon="11.941883333"><ele>423</ele><time>2015-05-14T12:26:58Z</time></trkpt><trkpt lat="49.736400000" lon="11.941816667"><ele>420</ele><time>2015-05-14T12:27:08Z</time></trkpt><trkpt lat="49.736516667" lon="11.941800000"><ele>418</ele><time>2015-05-14T12:27:18Z</time></trkpt><trkpt lat="49.736650000" lon="11.941833333"><ele>417</ele><time>2015-05-14T12:27:28Z</time></trkpt><trkpt lat="49.736750000" lon="11.941816667"><ele>419</ele><time>2015-05-14T12:27:38Z</time></trkpt><trkpt lat="49.736900000" lon="11.941833333"><ele>420</ele><time>2015-05-14T12:27:48Z</time></trkpt><trkpt lat="49.737033333" lon="11.941833333"><ele>421</ele><time>2015-05-14T12:27:58Z</time></trkpt><trkpt lat="49.737166667" lon="11.941833333"><ele>421</ele><time>2015-05-14T12:28:08Z</time></trkpt><trkpt lat="49.737283333" lon="11.941800000"><ele>424</ele><time>2015-05-14T12:28:18Z</time></trkpt><trkpt lat="49.737416667" lon="11.941800000"><ele>429</ele><time>2015-05-14T12:28:28Z</time></trkpt><trkpt lat="49.737533333" lon="11.941766667"><ele>432</ele><time>2015-05-14T12:28:38Z</time></trkpt><trkpt lat="49.737650000" lon="11.941750000"><ele>433</ele><time>2015-05-14T12:28:48Z</time></trkpt><trkpt lat="49.737766667" lon="11.941750000"><ele>429</ele><time>2015-05-14T12:28:58Z</time></trkpt><trkpt lat="49.737916667" lon="11.941733333"><ele>427</ele><time>2015-05-14T12:29:08Z</time></trkpt><trkpt lat="49.738050000" lon="11.941700000"><ele>425</ele><time>2015-05-14T12:29:18Z</time></trkpt><trkpt lat="49.738183333" lon="11.941650000"><ele>427</ele><time>2015-05-14T12:29:28Z</time></trkpt><trkpt lat="49.738300000" lon="11.941616667"><ele>430</ele><time>2015-05-14T12:29:38Z</time></trkpt><trkpt lat="49.738416667" lon="11.941566667"><ele>432</ele><time>2015-05-14T12:29:48Z</time></trkpt><trkpt lat="49.738483333" lon="11.941466667"><ele>431</ele><time>2015-05-14T12:29:58Z</time></trkpt><trkpt lat="49.738583333" lon="11.941400000"><ele>429</ele><time>2015-05-14T12:30:08Z</time></trkpt><trkpt lat="49.738733333" lon="11.941350000"><ele>430</ele><time>2015-05-14T12:30:18Z</time></trkpt><trkpt lat="49.738850000" lon="11.941350000"><ele>433</ele><time>2015-05-14T12:30:28Z</time></trkpt><trkpt lat="49.739000000" lon="11.941266667"><ele>434</ele><time>2015-05-14T12:30:38Z</time></trkpt><trkpt lat="49.739150000" lon="11.941216667"><ele>429</ele><time>2015-05-14T12:30:48Z</time></trkpt><trkpt lat="49.739300000" lon="11.941283333"><ele>428</ele><time>2015-05-14T12:30:58Z</time></trkpt><trkpt lat="49.739433333" lon="11.941316667"><ele>430</ele><time>2015-05-14T12:31:08Z</time></trkpt><trkpt lat="49.739550000" lon="11.941266667"><ele>425</ele><time>2015-05-14T12:31:18Z</time></trkpt><trkpt lat="49.739650000" lon="11.941250000"><ele>426</ele><time>2015-05-14T12:31:28Z</time></trkpt><trkpt lat="49.739766667" lon="11.941266667"><ele>426</ele><time>2015-05-14T12:31:38Z</time></trkpt><trkpt lat="49.739916667" lon="11.941316667"><ele>425</ele><time>2015-05-14T12:31:48Z</time></trkpt><trkpt lat="49.740050000" lon="11.941433333"><ele>422</ele><time>2015-05-14T12:31:58Z</time></trkpt><trkpt lat="49.740183333" lon="11.941416667"><ele>423</ele><time>2015-05-14T12:32:08Z</time></trkpt><trkpt lat="49.740283333" lon="11.941400000"><ele>427</ele><time>2015-05-14T12:32:18Z</time></trkpt><trkpt lat="49.740416667" lon="11.941400000"><ele>428</ele><time>2015-05-14T12:32:28Z</time></trkpt><trkpt lat="49.740550000" lon="11.941366667"><ele>430</ele><time>2015-05-14T12:32:38Z</time></trkpt><trkpt lat="49.740666667" lon="11.941283333"><ele>423</ele><time>2015-05-14T12:32:48Z</time></trkpt><trkpt lat="49.740783333" lon="11.941250000"><ele>421</ele><time>2015-05-14T12:32:58Z</time></trkpt><trkpt lat="49.740916667" lon="11.941216667"><ele>421</ele><time>2015-05-14T12:33:08Z</time></trkpt><trkpt lat="49.741050000" lon="11.941166667"><ele>422</ele><time>2015-05-14T12:33:18Z</time></trkpt><trkpt lat="49.741166667" lon="11.941116667"><ele>422</ele><time>2015-05-14T12:33:28Z</time></trkpt><trkpt lat="49.741283333" lon="11.941066667"><ele>422</ele><time>2015-05-14T12:33:38Z</time></trkpt><trkpt lat="49.741416667" lon="11.941000000"><ele>422</ele><time>2015-05-14T12:33:48Z</time></trkpt><trkpt lat="49.741533333" lon="11.940933333"><ele>420</ele><time>2015-05-14T12:33:58Z</time></trkpt><trkpt lat="49.741650000" lon="11.940866667"><ele>424</ele><time>2015-05-14T12:34:08Z</time></trkpt><trkpt lat="49.741750000" lon="11.940750000"><ele>426</ele><time>2015-05-14T12:34:18Z</time></trkpt><trkpt lat="49.741866667" lon="11.940700000"><ele>428</ele><time>2015-05-14T12:34:28Z</time></trkpt><trkpt lat="49.741900000" lon="11.940683333"><ele>427</ele><time>2015-05-14T12:34:38Z</time></trkpt><trkpt lat="49.742000000" lon="11.940583333"><ele>428</ele><time>2015-05-14T12:34:48Z</time></trkpt><trkpt lat="49.742116667" lon="11.940516667"><ele>430</ele><time>2015-05-14T12:34:58Z</time></trkpt><trkpt lat="49.742233333" lon="11.940400000"><ele>431</ele><time>2015-05-14T12:35:08Z</time></trkpt><trkpt lat="49.742350000" lon="11.940383333"><ele>430</ele><time>2015-05-14T12:35:18Z</time></trkpt><trkpt lat="49.742350000" lon="11.940350000"><ele>431</ele><time>2015-05-14T12:35:28Z</time></trkpt><trkpt lat="49.742466667" lon="11.940266667"><ele>432</ele><time>2015-05-14T12:35:38Z</time></trkpt><trkpt lat="49.742600000" lon="11.940166667"><ele>434</ele><time>2015-05-14T12:35:48Z</time></trkpt><trkpt lat="49.742666667" lon="11.940050000"><ele>433</ele><time>2015-05-14T12:35:58Z</time></trkpt><trkpt lat="49.742816667" lon="11.940000000"><ele>432</ele><time>2015-05-14T12:36:08Z</time></trkpt><trkpt lat="49.742933333" lon="11.939933333"><ele>432</ele><time>2015-05-14T12:36:18Z</time></trkpt><trkpt lat="49.743033333" lon="11.939833333"><ele>434</ele><time>2015-05-14T12:36:28Z</time></trkpt><trkpt lat="49.743166667" lon="11.939766667"><ele>432</ele><time>2015-05-14T12:36:38Z</time></trkpt><trkpt lat="49.743283333" lon="11.939733333"><ele>433</ele><time>2015-05-14T12:36:48Z</time></trkpt><trkpt lat="49.743416667" lon="11.939666667"><ele>432</ele><time>2015-05-14T12:36:58Z</time></trkpt><trkpt lat="49.743533333" lon="11.939633333"><ele>428</ele><time>2015-05-14T12:37:08Z</time></trkpt><trkpt lat="49.743650000" lon="11.939533333"><ele>430</ele><time>2015-05-14T12:37:18Z</time></trkpt><trkpt lat="49.743750000" lon="11.939466667"><ele>434</ele><time>2015-05-14T12:37:28Z</time></trkpt><trkpt lat="49.743883333" lon="11.939400000"><ele>438</ele><time>2015-05-14T12:37:38Z</time></trkpt><trkpt lat="49.743983333" lon="11.939316667"><ele>437</ele><time>2015-05-14T12:37:48Z</time></trkpt><trkpt lat="49.744033333" lon="11.939266667"><ele>436</ele><time>2015-05-14T12:37:58Z</time></trkpt><trkpt lat="49.744100000" lon="11.939200000"><ele>436</ele><time>2015-05-14T12:38:08Z</time></trkpt><trkpt lat="49.744216667" lon="11.939133333"><ele>433</ele><time>2015-05-14T12:38:18Z</time></trkpt><trkpt lat="49.744350000" lon="11.939066667"><ele>439</ele><time>2015-05-14T12:38:28Z</time></trkpt><trkpt lat="49.744433333" lon="11.938983333"><ele>440</ele><time>2015-05-14T12:38:38Z</time></trkpt><trkpt lat="49.744600000" lon="11.938950000"><ele>439</ele><time>2015-05-14T12:38:48Z</time></trkpt><trkpt lat="49.744700000" lon="11.938866667"><ele>441</ele><time>2015-05-14T12:38:58Z</time></trkpt><trkpt lat="49.744850000" lon="11.938766667"><ele>443</ele><time>2015-05-14T12:39:08Z</time></trkpt><trkpt lat="49.744966667" lon="11.938733333"><ele>444</ele><time>2015-05-14T12:39:18Z</time></trkpt><trkpt lat="49.745066667" lon="11.938700000"><ele>443</ele><time>2015-05-14T12:39:28Z</time></trkpt><trkpt lat="49.745183333" lon="11.938566667"><ele>443</ele><time>2015-05-14T12:39:38Z</time></trkpt><trkpt lat="49.745283333" lon="11.938416667"><ele>442</ele><time>2015-05-14T12:39:48Z</time></trkpt><trkpt lat="49.745450000" lon="11.938316667"><ele>435</ele><time>2015-05-14T12:39:58Z</time></trkpt><trkpt lat="49.745550000" lon="11.938233333"><ele>437</ele><time>2015-05-14T12:40:08Z</time></trkpt><trkpt lat="49.745616667" lon="11.938150000"><ele>436</ele><time>2015-05-14T12:40:18Z</time></trkpt><trkpt lat="49.745700000" lon="11.938050000"><ele>439</ele><time>2015-05-14T12:40:28Z</time></trkpt><trkpt lat="49.745833333" lon="11.937983333"><ele>440</ele><time>2015-05-14T12:40:38Z</time></trkpt><trkpt lat="49.745983333" lon="11.937966667"><ele>440</ele><time>2015-05-14T12:40:48Z</time></trkpt><trkpt lat="49.746083333" lon="11.937950000"><ele>443</ele><time>2015-05-14T12:40:58Z</time></trkpt><trkpt lat="49.746166667" lon="11.937916667"><ele>445</ele><time>2015-05-14T12:41:08Z</time></trkpt><trkpt lat="49.746283333" lon="11.937800000"><ele>447</ele><time>2015-05-14T12:41:18Z</time></trkpt><trkpt lat="49.746400000" lon="11.937716667"><ele>450</ele><time>2015-05-14T12:41:28Z</time></trkpt><trkpt lat="49.746500000" lon="11.937600000"><ele>449</ele><time>2015-05-14T12:41:38Z</time></trkpt><trkpt lat="49.746650000" lon="11.937466667"><ele>449</ele><time>2015-05-14T12:41:48Z</time></trkpt><trkpt lat="49.746683333" lon="11.937466667"><ele>445</ele><time>2015-05-14T12:41:58Z</time></trkpt><trkpt lat="49.746800000" lon="11.937300000"><ele>446</ele><time>2015-05-14T12:42:08Z</time></trkpt><trkpt lat="49.746900000" lon="11.937200000"><ele>446</ele><time>2015-05-14T12:42:18Z</time></trkpt><trkpt lat="49.746966667" lon="11.937083333"><ele>446</ele><time>2015-05-14T12:42:28Z</time></trkpt><trkpt lat="49.747083333" lon="11.936950000"><ele>446</ele><time>2015-05-14T12:42:38Z</time></trkpt><trkpt lat="49.747133333" lon="11.936783333"><ele>446</ele><time>2015-05-14T12:42:48Z</time></trkpt><trkpt lat="49.747233333" lon="11.936716667"><ele>445</ele><time>2015-05-14T12:42:58Z</time></trkpt><trkpt lat="49.747350000" lon="11.936416667"><ele>446</ele><time>2015-05-14T12:43:08Z</time></trkpt><trkpt lat="49.747450000" lon="11.936383333"><ele>448</ele><time>2015-05-14T12:43:18Z</time></trkpt><trkpt lat="49.747583333" lon="11.936300000"><ele>451</ele><time>2015-05-14T12:43:28Z</time></trkpt><trkpt lat="49.747700000" lon="11.936250000"><ele>453</ele><time>2015-05-14T12:43:38Z</time></trkpt><trkpt lat="49.747733333" lon="11.936533333"><ele>453</ele><time>2015-05-14T12:43:48Z</time></trkpt><trkpt lat="49.747850000" lon="11.936683333"><ele>450</ele><time>2015-05-14T12:43:58Z</time></trkpt><trkpt lat="49.747966667" lon="11.936900000"><ele>447</ele><time>2015-05-14T12:44:08Z</time></trkpt><trkpt lat="49.748033333" lon="11.937100000"><ele>443</ele><time>2015-05-14T12:44:18Z</time></trkpt><trkpt lat="49.748133333" lon="11.937250000"><ele>436</ele><time>2015-05-14T12:44:28Z</time></trkpt><trkpt lat="49.748150000" lon="11.937416667"><ele>428</ele><time>2015-05-14T12:44:38Z</time></trkpt><trkpt lat="49.748200000" lon="11.937583333"><ele>427</ele><time>2015-05-14T12:44:48Z</time></trkpt><trkpt lat="49.748333333" lon="11.937716667"><ele>422</ele><time>2015-05-14T12:44:58Z</time></trkpt><trkpt lat="49.748416667" lon="11.937850000"><ele>429</ele><time>2015-05-14T12:45:08Z</time></trkpt><trkpt lat="49.748500000" lon="11.937966667"><ele>434</ele><time>2015-05-14T12:45:18Z</time></trkpt><trkpt lat="49.748633333" lon="11.938000000"><ele>430</ele><time>2015-05-14T12:45:28Z</time></trkpt><trkpt lat="49.748750000" lon="11.937983333"><ele>431</ele><time>2015-05-14T12:45:38Z</time></trkpt><trkpt lat="49.748900000" lon="11.937950000"><ele>426</ele><time>2015-05-14T12:45:48Z</time></trkpt><trkpt lat="49.749000000" lon="11.937950000"><ele>430</ele><time>2015-05-14T12:45:58Z</time></trkpt><trkpt lat="49.749133333" lon="11.937900000"><ele>435</ele><time>2015-05-14T12:46:08Z</time></trkpt><trkpt lat="49.749233333" lon="11.937933333"><ele>435</ele><time>2015-05-14T12:46:18Z</time></trkpt><trkpt lat="49.749366667" lon="11.937933333"><ele>441</ele><time>2015-05-14T12:46:28Z</time></trkpt><trkpt lat="49.749500000" lon="11.938000000"><ele>439</ele><time>2015-05-14T12:46:38Z</time></trkpt><trkpt lat="49.749650000" lon="11.938083333"><ele>432</ele><time>2015-05-14T12:46:48Z</time></trkpt><trkpt lat="49.749750000" lon="11.938100000"><ele>436</ele><time>2015-05-14T12:46:58Z</time></trkpt><trkpt lat="49.749900000" lon="11.938116667"><ele>439</ele><time>2015-05-14T12:47:08Z</time></trkpt><trkpt lat="49.750033333" lon="11.938283333"><ele>439</ele><time>2015-05-14T12:47:18Z</time></trkpt><trkpt lat="49.750116667" lon="11.938366667"><ele>436</ele><time>2015-05-14T12:47:28Z</time></trkpt><trkpt lat="49.750250000" lon="11.938416667"><ele>437</ele><time>2015-05-14T12:47:38Z</time></trkpt><trkpt lat="49.750366667" lon="11.938450000"><ele>438</ele><time>2015-05-14T12:47:48Z</time></trkpt><trkpt lat="49.750483333" lon="11.938566667"><ele>436</ele><time>2015-05-14T12:47:58Z</time></trkpt><trkpt lat="49.750650000" lon="11.938683333"><ele>432</ele><time>2015-05-14T12:48:08Z</time></trkpt><trkpt lat="49.750766667" lon="11.938750000"><ele>431</ele><time>2015-05-14T12:48:18Z</time></trkpt><trkpt lat="49.750916667" lon="11.938816667"><ele>431</ele><time>2015-05-14T12:48:28Z</time></trkpt><trkpt lat="49.751066667" lon="11.938866667"><ele>425</ele><time>2015-05-14T12:48:38Z</time></trkpt><trkpt lat="49.751183333" lon="11.938850000"><ele>420</ele><time>2015-05-14T12:48:48Z</time></trkpt><trkpt lat="49.751300000" lon="11.938866667"><ele>421</ele><time>2015-05-14T12:48:58Z</time></trkpt><trkpt lat="49.751450000" lon="11.938900000"><ele>422</ele><time>2015-05-14T12:49:08Z</time></trkpt><trkpt lat="49.751583333" lon="11.938950000"><ele>421</ele><time>2015-05-14T12:49:18Z</time></trkpt><trkpt lat="49.751716667" lon="11.938966667"><ele>422</ele><time>2015-05-14T12:49:28Z</time></trkpt><trkpt lat="49.751833333" lon="11.939000000"><ele>422</ele><time>2015-05-14T12:49:38Z</time></trkpt><trkpt lat="49.751966667" lon="11.939000000"><ele>423</ele><time>2015-05-14T12:49:48Z</time></trkpt><trkpt lat="49.752100000" lon="11.939016667"><ele>423</ele><time>2015-05-14T12:49:58Z</time></trkpt><trkpt lat="49.752233333" lon="11.938983333"><ele>423</ele><time>2015-05-14T12:50:08Z</time></trkpt><trkpt lat="49.752350000" lon="11.938933333"><ele>423</ele><time>2015-05-14T12:50:18Z</time></trkpt><trkpt lat="49.752483333" lon="11.938883333"><ele>422</ele><time>2015-05-14T12:50:28Z</time></trkpt><trkpt lat="49.752616667" lon="11.938816667"><ele>422</ele><time>2015-05-14T12:50:38Z</time></trkpt><trkpt lat="49.752750000" lon="11.938783333"><ele>422</ele><time>2015-05-14T12:50:48Z</time></trkpt><trkpt lat="49.752883333" lon="11.938783333"><ele>422</ele><time>2015-05-14T12:50:58Z</time></trkpt><trkpt lat="49.753000000" lon="11.938766667"><ele>423</ele><time>2015-05-14T12:51:08Z</time></trkpt><trkpt lat="49.753150000" lon="11.938733333"><ele>422</ele><time>2015-05-14T12:51:18Z</time></trkpt><trkpt lat="49.753266667" lon="11.938716667"><ele>421</ele><time>2015-05-14T12:51:28Z</time></trkpt><trkpt lat="49.753400000" lon="11.938683333"><ele>421</ele><time>2015-05-14T12:51:38Z</time></trkpt><trkpt lat="49.753516667" lon="11.938633333"><ele>422</ele><time>2015-05-14T12:51:48Z</time></trkpt><trkpt lat="49.753633333" lon="11.938550000"><ele>423</ele><time>2015-05-14T12:51:58Z</time></trkpt><trkpt lat="49.753700000" lon="11.938383333"><ele>422</ele><time>2015-05-14T12:52:08Z</time></trkpt><trkpt lat="49.753766667" lon="11.938183333"><ele>422</ele><time>2015-05-14T12:52:18Z</time></trkpt><trkpt lat="49.753800000" lon="11.938000000"><ele>423</ele><time>2015-05-14T12:52:28Z</time></trkpt><trkpt lat="49.753850000" lon="11.937816667"><ele>423</ele><time>2015-05-14T12:52:38Z</time></trkpt><trkpt lat="49.753833333" lon="11.937650000"><ele>424</ele><time>2015-05-14T12:52:48Z</time></trkpt><trkpt lat="49.753933333" lon="11.937483333"><ele>423</ele><time>2015-05-14T12:52:58Z</time></trkpt><trkpt lat="49.754066667" lon="11.937566667"><ele>421</ele><time>2015-05-14T12:53:08Z</time></trkpt><trkpt lat="49.754166667" lon="11.937766667"><ele>420</ele><time>2015-05-14T12:53:18Z</time></trkpt><trkpt lat="49.754183333" lon="11.937916667"><ele>418</ele><time>2015-05-14T12:53:28Z</time></trkpt><trkpt lat="49.754216667" lon="11.938100000"><ele>415</ele><time>2015-05-14T12:53:38Z</time></trkpt><trkpt lat="49.754216667" lon="11.938333333"><ele>415</ele><time>2015-05-14T12:53:48Z</time></trkpt><trkpt lat="49.754200000" lon="11.938550000"><ele>414</ele><time>2015-05-14T12:53:58Z</time></trkpt><trkpt lat="49.754200000" lon="11.938733333"><ele>414</ele><time>2015-05-14T12:54:08Z</time></trkpt><trkpt lat="49.754216667" lon="11.938933333"><ele>414</ele><time>2015-05-14T12:54:18Z</time></trkpt></trkseg><trkseg><trkpt lat="49.754116667" lon="11.939200000"><ele>428</ele><time>2015-05-14T14:27:54Z</time></trkpt><trkpt lat="49.754133333" lon="11.939166667"><ele>426</ele><time>2015-05-14T14:28:04Z</time></trkpt><trkpt lat="49.754133333" lon="11.939000000"><ele>428</ele><time>2015-05-14T14:28:14Z</time></trkpt><trkpt lat="49.754133333" lon="11.938900000"><ele>426</ele><time>2015-05-14T14:28:24Z</time></trkpt><trkpt lat="49.754150000" lon="11.938683333"><ele>426</ele><time>2015-05-14T14:28:34Z</time></trkpt><trkpt lat="49.754133333" lon="11.938466667"><ele>427</ele><time>2015-05-14T14:28:44Z</time></trkpt><trkpt lat="49.754116667" lon="11.938350000"><ele>429</ele><time>2015-05-14T14:28:54Z</time></trkpt><trkpt lat="49.754183333" lon="11.938133333"><ele>431</ele><time>2015-05-14T14:29:04Z</time></trkpt><trkpt lat="49.754116667" lon="11.937983333"><ele>432</ele><time>2015-05-14T14:29:14Z</time></trkpt><trkpt lat="49.754083333" lon="11.937883333"><ele>432</ele><time>2015-05-14T14:29:24Z</time></trkpt><trkpt lat="49.754166667" lon="11.937683333"><ele>434</ele><time>2015-05-14T14:29:34Z</time></trkpt><trkpt lat="49.754116667" lon="11.937550000"><ele>434</ele><time>2015-05-14T14:29:44Z</time></trkpt><trkpt lat="49.754033333" lon="11.937383333"><ele>435</ele><time>2015-05-14T14:29:54Z</time></trkpt><trkpt lat="49.753900000" lon="11.937583333"><ele>436</ele><time>2015-05-14T14:30:04Z</time></trkpt><trkpt lat="49.753816667" lon="11.937700000"><ele>436</ele><time>2015-05-14T14:30:14Z</time></trkpt><trkpt lat="49.753750000" lon="11.937833333"><ele>436</ele><time>2015-05-14T14:30:24Z</time></trkpt><trkpt lat="49.753716667" lon="11.937950000"><ele>436</ele><time>2015-05-14T14:30:34Z</time></trkpt><trkpt lat="49.753716667" lon="11.938150000"><ele>437</ele><time>2015-05-14T14:30:44Z</time></trkpt><trkpt lat="49.753700000" lon="11.938383333"><ele>436</ele><time>2015-05-14T14:30:54Z</time></trkpt><trkpt lat="49.753633333" lon="11.938533333"><ele>435</ele><time>2015-05-14T14:31:04Z</time></trkpt><trkpt lat="49.753550000" lon="11.938616667"><ele>433</ele><time>2015-05-14T14:31:14Z</time></trkpt><trkpt lat="49.753416667" lon="11.938650000"><ele>433</ele><time>2015-05-14T14:31:24Z</time></trkpt><trkpt lat="49.753366667" lon="11.938800000"><ele>434</ele><time>2015-05-14T14:31:34Z</time></trkpt><trkpt lat="49.753266667" lon="11.938866667"><ele>433</ele><time>2015-05-14T14:31:44Z</time></trkpt><trkpt lat="49.753133333" lon="11.938900000"><ele>432</ele><time>2015-05-14T14:31:54Z</time></trkpt><trkpt lat="49.752983333" lon="11.938883333"><ele>430</ele><time>2015-05-14T14:32:04Z</time></trkpt><trkpt lat="49.752866667" lon="11.938883333"><ele>428</ele><time>2015-05-14T14:32:14Z</time></trkpt><trkpt lat="49.752733333" lon="11.938833333"><ele>424</ele><time>2015-05-14T14:32:24Z</time></trkpt><trkpt lat="49.752600000" lon="11.938833333"><ele>422</ele><time>2015-05-14T14:32:34Z</time></trkpt><trkpt lat="49.752483333" lon="11.938866667"><ele>421</ele><time>2015-05-14T14:32:44Z</time></trkpt><trkpt lat="49.752333333" lon="11.938900000"><ele>419</ele><time>2015-05-14T14:32:54Z</time></trkpt><trkpt lat="49.752216667" lon="11.938933333"><ele>418</ele><time>2015-05-14T14:33:04Z</time></trkpt><trkpt lat="49.752083333" lon="11.938933333"><ele>417</ele><time>2015-05-14T14:33:14Z</time></trkpt><trkpt lat="49.751966667" lon="11.938916667"><ele>416</ele><time>2015-05-14T14:33:24Z</time></trkpt><trkpt lat="49.751833333" lon="11.938900000"><ele>415</ele><time>2015-05-14T14:33:34Z</time></trkpt><trkpt lat="49.751716667" lon="11.938883333"><ele>415</ele><time>2015-05-14T14:33:44Z</time></trkpt><trkpt lat="49.751583333" lon="11.938850000"><ele>413</ele><time>2015-05-14T14:33:54Z</time></trkpt><trkpt lat="49.751450000" lon="11.938816667"><ele>413</ele><time>2015-05-14T14:34:04Z</time></trkpt><trkpt lat="49.751333333" lon="11.938800000"><ele>413</ele><time>2015-05-14T14:34:14Z</time></trkpt><trkpt lat="49.751200000" lon="11.938766667"><ele>413</ele><time>2015-05-14T14:34:24Z</time></trkpt><trkpt lat="49.751083333" lon="11.938800000"><ele>417</ele><time>2015-05-14T14:34:34Z</time></trkpt><trkpt lat="49.750983333" lon="11.938783333"><ele>419</ele><time>2015-05-14T14:34:44Z</time></trkpt><trkpt lat="49.750950000" lon="11.938816667"><ele>421</ele><time>2015-05-14T14:34:54Z</time></trkpt><trkpt lat="49.750866667" lon="11.938766667"><ele>422</ele><time>2015-05-14T14:35:04Z</time></trkpt><trkpt lat="49.750850000" lon="11.938783333"><ele>424</ele><time>2015-05-14T14:35:14Z</time></trkpt><trkpt lat="49.750783333" lon="11.938733333"><ele>425</ele><time>2015-05-14T14:35:24Z</time></trkpt><trkpt lat="49.750733333" lon="11.938666667"><ele>426</ele><time>2015-05-14T14:35:34Z</time></trkpt><trkpt lat="49.750550000" lon="11.938566667"><ele>425</ele><time>2015-05-14T14:35:44Z</time></trkpt><trkpt lat="49.750533333" lon="11.938550000"><ele>427</ele><time>2015-05-14T14:35:54Z</time></trkpt><trkpt lat="49.750383333" lon="11.938466667"><ele>426</ele><time>2015-05-14T14:36:04Z</time></trkpt><trkpt lat="49.750283333" lon="11.938450000"><ele>427</ele><time>2015-05-14T14:36:14Z</time></trkpt><trkpt lat="49.750233333" lon="11.938500000"><ele>428</ele><time>2015-05-14T14:36:24Z</time></trkpt><trkpt lat="49.750183333" lon="11.938416667"><ele>430</ele><time>2015-05-14T14:36:34Z</time></trkpt><trkpt lat="49.750100000" lon="11.938350000"><ele>431</ele><time>2015-05-14T14:36:44Z</time></trkpt><trkpt lat="49.749866667" lon="11.938133333"><ele>433</ele><time>2015-05-14T14:36:54Z</time></trkpt><trkpt lat="49.749733333" lon="11.938100000"><ele>434</ele><time>2015-05-14T14:37:04Z</time></trkpt><trkpt lat="49.749700000" lon="11.938100000"><ele>435</ele><time>2015-05-14T14:37:14Z</time></trkpt><trkpt lat="49.749566667" lon="11.938083333"><ele>436</ele><time>2015-05-14T14:37:24Z</time></trkpt><trkpt lat="49.749400000" lon="11.938066667"><ele>436</ele><time>2015-05-14T14:37:34Z</time></trkpt><trkpt lat="49.749200000" lon="11.937950000"><ele>437</ele><time>2015-05-14T14:37:44Z</time></trkpt><trkpt lat="49.749150000" lon="11.937966667"><ele>438</ele><time>2015-05-14T14:37:54Z</time></trkpt><trkpt lat="49.749050000" lon="11.937983333"><ele>439</ele><time>2015-05-14T14:38:04Z</time></trkpt><trkpt lat="49.748900000" lon="11.938016667"><ele>439</ele><time>2015-05-14T14:38:14Z</time></trkpt><trkpt lat="49.748816667" lon="11.938016667"><ele>440</ele><time>2015-05-14T14:38:24Z</time></trkpt><trkpt lat="49.748650000" lon="11.937983333"><ele>440</ele><time>2015-05-14T14:38:34Z</time></trkpt><trkpt lat="49.748550000" lon="11.937933333"><ele>441</ele><time>2015-05-14T14:38:44Z</time></trkpt><trkpt lat="49.748466667" lon="11.937900000"><ele>439</ele><time>2015-05-14T14:38:54Z</time></trkpt><trkpt lat="49.748316667" lon="11.937716667"><ele>437</ele><time>2015-05-14T14:39:04Z</time></trkpt><trkpt lat="49.748216667" lon="11.937600000"><ele>438</ele><time>2015-05-14T14:39:14Z</time></trkpt><trkpt lat="49.748216667" lon="11.937433333"><ele>439</ele><time>2015-05-14T14:39:24Z</time></trkpt><trkpt lat="49.748150000" lon="11.937316667"><ele>440</ele><time>2015-05-14T14:39:34Z</time></trkpt><trkpt lat="49.748133333" lon="11.937200000"><ele>442</ele><time>2015-05-14T14:39:44Z</time></trkpt><trkpt lat="49.748100000" lon="11.937016667"><ele>442</ele><time>2015-05-14T14:39:54Z</time></trkpt><trkpt lat="49.747983333" lon="11.936850000"><ele>443</ele><time>2015-05-14T14:40:04Z</time></trkpt><trkpt lat="49.747950000" lon="11.936633333"><ele>443</ele><time>2015-05-14T14:40:14Z</time></trkpt><trkpt lat="49.747883333" lon="11.936383333"><ele>442</ele><time>2015-05-14T14:40:24Z</time></trkpt><trkpt lat="49.747883333" lon="11.936166667"><ele>442</ele><time>2015-05-14T14:40:34Z</time></trkpt><trkpt lat="49.748000000" lon="11.936016667"><ele>442</ele><time>2015-05-14T14:40:44Z</time></trkpt><trkpt lat="49.748033333" lon="11.935950000"><ele>442</ele><time>2015-05-14T14:40:54Z</time></trkpt><trkpt lat="49.748166667" lon="11.935833333"><ele>444</ele><time>2015-05-14T14:41:04Z</time></trkpt><trkpt lat="49.748200000" lon="11.935700000"><ele>445</ele><time>2015-05-14T14:41:14Z</time></trkpt><trkpt lat="49.748333333" lon="11.935516667"><ele>445</ele><time>2015-05-14T14:41:24Z</time></trkpt><trkpt lat="49.748383333" lon="11.935416667"><ele>446</ele><time>2015-05-14T14:41:34Z</time></trkpt><trkpt lat="49.748516667" lon="11.935300000"><ele>447</ele><time>2015-05-14T14:41:44Z</time></trkpt><trkpt lat="49.748533333" lon="11.935116667"><ele>449</ele><time>2015-05-14T14:41:54Z</time></trkpt><trkpt lat="49.748633333" lon="11.934983333"><ele>449</ele><time>2015-05-14T14:42:04Z</time></trkpt><trkpt lat="49.748750000" lon="11.934816667"><ele>450</ele><time>2015-05-14T14:42:14Z</time></trkpt><trkpt lat="49.748783333" lon="11.934666667"><ele>450</ele><time>2015-05-14T14:42:24Z</time></trkpt><trkpt lat="49.748750000" lon="11.934516667"><ele>450</ele><time>2015-05-14T14:42:34Z</time></trkpt><trkpt lat="49.748750000" lon="11.934333333"><ele>450</ele><time>2015-05-14T14:42:44Z</time></trkpt><trkpt lat="49.748766667" lon="11.934183333"><ele>450</ele><time>2015-05-14T14:42:54Z</time></trkpt><trkpt lat="49.748766667" lon="11.934000000"><ele>450</ele><time>2015-05-14T14:43:04Z</time></trkpt><trkpt lat="49.748783333" lon="11.933883333"><ele>450</ele><time>2015-05-14T14:43:14Z</time></trkpt><trkpt lat="49.748750000" lon="11.933566667"><ele>450</ele><time>2015-05-14T14:43:24Z</time></trkpt><trkpt lat="49.748750000" lon="11.933400000"><ele>449</ele><time>2015-05-14T14:43:34Z</time></trkpt><trkpt lat="49.748783333" lon="11.933250000"><ele>449</ele><time>2015-05-14T14:43:44Z</time></trkpt><trkpt lat="49.748833333" lon="11.933183333"><ele>449</ele><time>2015-05-14T14:43:54Z</time></trkpt><trkpt lat="49.748866667" lon="11.933016667"><ele>449</ele><time>2015-05-14T14:44:04Z</time></trkpt><trkpt lat="49.748850000" lon="11.932766667"><ele>449</ele><time>2015-05-14T14:44:14Z</time></trkpt><trkpt lat="49.748816667" lon="11.932566667"><ele>449</ele><time>2015-05-14T14:44:24Z</time></trkpt><trkpt lat="49.748866667" lon="11.932383333"><ele>449</ele><time>2015-05-14T14:44:34Z</time></trkpt><trkpt lat="49.748883333" lon="11.932283333"><ele>449</ele><time>2015-05-14T14:44:44Z</time></trkpt><trkpt lat="49.748950000" lon="11.932116667"><ele>449</ele><time>2015-05-14T14:44:54Z</time></trkpt><trkpt lat="49.748966667" lon="11.931966667"><ele>450</ele><time>2015-05-14T14:45:04Z</time></trkpt><trkpt lat="49.749016667" lon="11.931850000"><ele>450</ele><time>2015-05-14T14:45:14Z</time></trkpt><trkpt lat="49.749016667" lon="11.931666667"><ele>450</ele><time>2015-05-14T14:45:24Z</time></trkpt><trkpt lat="49.749033333" lon="11.931483333"><ele>451</ele><time>2015-05-14T14:45:34Z</time></trkpt><trkpt lat="49.749016667" lon="11.931283333"><ele>451</ele><time>2015-05-14T14:45:44Z</time></trkpt><trkpt lat="49.748983333" lon="11.931050000"><ele>451</ele><time>2015-05-14T14:45:54Z</time></trkpt><trkpt lat="49.749016667" lon="11.930850000"><ele>452</ele><time>2015-05-14T14:46:04Z</time></trkpt><trkpt lat="49.749016667" lon="11.930666667"><ele>452</ele><time>2015-05-14T14:46:14Z</time></trkpt><trkpt lat="49.749050000" lon="11.930500000"><ele>452</ele><time>2015-05-14T14:46:24Z</time></trkpt><trkpt lat="49.749050000" lon="11.930366667"><ele>452</ele><time>2015-05-14T14:46:34Z</time></trkpt><trkpt lat="49.748933333" lon="11.930266667"><ele>452</ele><time>2015-05-14T14:46:44Z</time></trkpt><trkpt lat="49.748883333" lon="11.930150000"><ele>452</ele><time>2015-05-14T14:46:54Z</time></trkpt><trkpt lat="49.748883333" lon="11.929983333"><ele>452</ele><time>2015-05-14T14:47:04Z</time></trkpt><trkpt lat="49.748850000" lon="11.929800000"><ele>453</ele><time>2015-05-14T14:47:14Z</time></trkpt><trkpt lat="49.748833333" lon="11.929600000"><ele>452</ele><time>2015-05-14T14:47:24Z</time></trkpt><trkpt lat="49.748850000" lon="11.929466667"><ele>453</ele><time>2015-05-14T14:47:34Z</time></trkpt><trkpt lat="49.748750000" lon="11.929216667"><ele>453</ele><time>2015-05-14T14:47:44Z</time></trkpt><trkpt lat="49.748683333" lon="11.929266667"><ele>453</ele><time>2015-05-14T14:47:54Z</time></trkpt><trkpt lat="49.748583333" lon="11.929350000"><ele>452</ele><time>2015-05-14T14:48:04Z</time></trkpt><trkpt lat="49.748500000" lon="11.929450000"><ele>452</ele><time>2015-05-14T14:48:14Z</time></trkpt><trkpt lat="49.748366667" lon="11.929483333"><ele>452</ele><time>2015-05-14T14:48:24Z</time></trkpt><trkpt lat="49.748250000" lon="11.929550000"><ele>453</ele><time>2015-05-14T14:48:34Z</time></trkpt><trkpt lat="49.748166667" lon="11.929616667"><ele>453</ele><time>2015-05-14T14:48:44Z</time></trkpt><trkpt lat="49.748100000" lon="11.929716667"><ele>453</ele><time>2015-05-14T14:48:54Z</time></trkpt><trkpt lat="49.748050000" lon="11.929783333"><ele>453</ele><time>2015-05-14T14:49:04Z</time></trkpt><trkpt lat="49.747800000" lon="11.929816667"><ele>454</ele><time>2015-05-14T14:49:14Z</time></trkpt><trkpt lat="49.747716667" lon="11.929933333"><ele>453</ele><time>2015-05-14T14:49:24Z</time></trkpt><trkpt lat="49.747583333" lon="11.929916667"><ele>454</ele><time>2015-05-14T14:49:34Z</time></trkpt><trkpt lat="49.747466667" lon="11.929933333"><ele>454</ele><time>2015-05-14T14:49:44Z</time></trkpt><trkpt lat="49.747383333" lon="11.929916667"><ele>454</ele><time>2015-05-14T14:49:54Z</time></trkpt><trkpt lat="49.747233333" lon="11.929900000"><ele>455</ele><time>2015-05-14T14:50:04Z</time></trkpt><trkpt lat="49.747116667" lon="11.929966667"><ele>454</ele><time>2015-05-14T14:50:14Z</time></trkpt><trkpt lat="49.747000000" lon="11.930000000"><ele>454</ele><time>2015-05-14T14:50:24Z</time></trkpt><trkpt lat="49.746916667" lon="11.929983333"><ele>454</ele><time>2015-05-14T14:50:34Z</time></trkpt><trkpt lat="49.746833333" lon="11.929966667"><ele>454</ele><time>2015-05-14T14:50:44Z</time></trkpt><trkpt lat="49.746683333" lon="11.929933333"><ele>455</ele><time>2015-05-14T14:50:54Z</time></trkpt><trkpt lat="49.746533333" lon="11.929900000"><ele>455</ele><time>2015-05-14T14:51:04Z</time></trkpt><trkpt lat="49.746466667" lon="11.929916667"><ele>455</ele><time>2015-05-14T14:51:14Z</time></trkpt><trkpt lat="49.746333333" lon="11.929916667"><ele>455</ele><time>2015-05-14T14:51:24Z</time></trkpt><trkpt lat="49.746200000" lon="11.929900000"><ele>455</ele><time>2015-05-14T14:51:34Z</time></trkpt><trkpt lat="49.746066667" lon="11.929866667"><ele>454</ele><time>2015-05-14T14:51:44Z</time></trkpt><trkpt lat="49.746000000" lon="11.929950000"><ele>453</ele><time>2015-05-14T14:51:54Z</time></trkpt><trkpt lat="49.745866667" lon="11.929950000"><ele>452</ele><time>2015-05-14T14:52:04Z</time></trkpt><trkpt lat="49.745716667" lon="11.929833333"><ele>452</ele><time>2015-05-14T14:52:14Z</time></trkpt><trkpt lat="49.745583333" lon="11.929766667"><ele>454</ele><time>2015-05-14T14:52:24Z</time></trkpt><trkpt lat="49.745450000" lon="11.929816667"><ele>454</ele><time>2015-05-14T14:52:34Z</time></trkpt><trkpt lat="49.745366667" lon="11.929800000"><ele>455</ele><time>2015-05-14T14:52:44Z</time></trkpt><trkpt lat="49.745266667" lon="11.929750000"><ele>456</ele><time>2015-05-14T14:52:54Z</time></trkpt><trkpt lat="49.745166667" lon="11.929683333"><ele>457</ele><time>2015-05-14T14:53:04Z</time></trkpt><trkpt lat="49.745066667" lon="11.929616667"><ele>458</ele><time>2015-05-14T14:53:14Z</time></trkpt><trkpt lat="49.744933333" lon="11.929600000"><ele>457</ele><time>2015-05-14T14:53:24Z</time></trkpt><trkpt lat="49.744833333" lon="11.929500000"><ele>458</ele><time>2015-05-14T14:53:34Z</time></trkpt><trkpt lat="49.744716667" lon="11.929500000"><ele>458</ele><time>2015-05-14T14:53:44Z</time></trkpt><trkpt lat="49.744633333" lon="11.929450000"><ele>458</ele><time>2015-05-14T14:53:54Z</time></trkpt><trkpt lat="49.744483333" lon="11.929400000"><ele>458</ele><time>2015-05-14T14:54:04Z</time></trkpt><trkpt lat="49.744350000" lon="11.929416667"><ele>459</ele><time>2015-05-14T14:54:14Z</time></trkpt><trkpt lat="49.744150000" lon="11.929183333"><ele>458</ele><time>2015-05-14T14:54:24Z</time></trkpt><trkpt lat="49.744133333" lon="11.929150000"><ele>457</ele><time>2015-05-14T14:54:34Z</time></trkpt><trkpt lat="49.744033333" lon="11.929033333"><ele>456</ele><time>2015-05-14T14:54:44Z</time></trkpt><trkpt lat="49.743900000" lon="11.929000000"><ele>456</ele><time>2015-05-14T14:54:54Z</time></trkpt><trkpt lat="49.743816667" lon="11.928916667"><ele>457</ele><time>2015-05-14T14:55:04Z</time></trkpt><trkpt lat="49.743700000" lon="11.928883333"><ele>457</ele><time>2015-05-14T14:55:14Z</time></trkpt><trkpt lat="49.743583333" lon="11.928833333"><ele>458</ele><time>2015-05-14T14:55:24Z</time></trkpt><trkpt lat="49.743483333" lon="11.928816667"><ele>459</ele><time>2015-05-14T14:55:34Z</time></trkpt><trkpt lat="49.743316667" lon="11.928783333"><ele>460</ele><time>2015-05-14T14:55:44Z</time></trkpt><trkpt lat="49.743250000" lon="11.928816667"><ele>459</ele><time>2015-05-14T14:55:54Z</time></trkpt><trkpt lat="49.743100000" lon="11.928716667"><ele>460</ele><time>2015-05-14T14:56:04Z</time></trkpt><trkpt lat="49.742983333" lon="11.928716667"><ele>461</ele><time>2015-05-14T14:56:14Z</time></trkpt><trkpt lat="49.742900000" lon="11.928716667"><ele>460</ele><time>2015-05-14T14:56:24Z</time></trkpt><trkpt lat="49.742750000" lon="11.928650000"><ele>460</ele><time>2015-05-14T14:56:34Z</time></trkpt><trkpt lat="49.742633333" lon="11.928633333"><ele>461</ele><time>2015-05-14T14:56:44Z</time></trkpt><trkpt lat="49.742500000" lon="11.928616667"><ele>462</ele><time>2015-05-14T14:56:54Z</time></trkpt><trkpt lat="49.742350000" lon="11.928550000"><ele>462</ele><time>2015-05-14T14:57:04Z</time></trkpt><trkpt lat="49.742233333" lon="11.928516667"><ele>462</ele><time>2015-05-14T14:57:14Z</time></trkpt><trkpt lat="49.742100000" lon="11.928550000"><ele>462</ele><time>2015-05-14T14:57:24Z</time></trkpt><trkpt lat="49.742050000" lon="11.928533333"><ele>462</ele><time>2015-05-14T14:57:34Z</time></trkpt><trkpt lat="49.741933333" lon="11.928516667"><ele>461</ele><time>2015-05-14T14:57:44Z</time></trkpt><trkpt lat="49.741783333" lon="11.928516667"><ele>460</ele><time>2015-05-14T14:57:54Z</time></trkpt><trkpt lat="49.741666667" lon="11.928500000"><ele>460</ele><time>2015-05-14T14:58:04Z</time></trkpt><trkpt lat="49.741533333" lon="11.928450000"><ele>459</ele><time>2015-05-14T14:58:14Z</time></trkpt><trkpt lat="49.741450000" lon="11.928450000"><ele>460</ele><time>2015-05-14T14:58:24Z</time></trkpt><trkpt lat="49.741300000" lon="11.928533333"><ele>459</ele><time>2015-05-14T14:58:34Z</time></trkpt><trkpt lat="49.741183333" lon="11.928716667"><ele>457</ele><time>2015-05-14T14:58:44Z</time></trkpt><trkpt lat="49.741016667" lon="11.928633333"><ele>457</ele><time>2015-05-14T14:58:54Z</time></trkpt><trkpt lat="49.740900000" lon="11.928650000"><ele>456</ele><time>2015-05-14T14:59:04Z</time></trkpt><trkpt lat="49.740766667" lon="11.928583333"><ele>455</ele><time>2015-05-14T14:59:14Z</time></trkpt><trkpt lat="49.740650000" lon="11.928516667"><ele>454</ele><time>2015-05-14T14:59:24Z</time></trkpt><trkpt lat="49.740533333" lon="11.928466667"><ele>453</ele><time>2015-05-14T14:59:34Z</time></trkpt><trkpt lat="49.740416667" lon="11.928433333"><ele>452</ele><time>2015-05-14T14:59:44Z</time></trkpt><trkpt lat="49.740283333" lon="11.928400000"><ele>452</ele><time>2015-05-14T14:59:54Z</time></trkpt><trkpt lat="49.740150000" lon="11.928366667"><ele>451</ele><time>2015-05-14T15:00:04Z</time></trkpt><trkpt lat="49.740016667" lon="11.928350000"><ele>450</ele><time>2015-05-14T15:00:14Z</time></trkpt><trkpt lat="49.739900000" lon="11.928333333"><ele>448</ele><time>2015-05-14T15:00:24Z</time></trkpt><trkpt lat="49.739766667" lon="11.928300000"><ele>446</ele><time>2015-05-14T15:00:34Z</time></trkpt><trkpt lat="49.739633333" lon="11.928250000"><ele>446</ele><time>2015-05-14T15:00:44Z</time></trkpt><trkpt lat="49.739516667" lon="11.928216667"><ele>445</ele><time>2015-05-14T15:00:54Z</time></trkpt><trkpt lat="49.739400000" lon="11.928183333"><ele>445</ele><time>2015-05-14T15:01:04Z</time></trkpt><trkpt lat="49.739283333" lon="11.928166667"><ele>444</ele><time>2015-05-14T15:01:14Z</time></trkpt><trkpt lat="49.739166667" lon="11.928133333"><ele>444</ele><time>2015-05-14T15:01:24Z</time></trkpt><trkpt lat="49.739033333" lon="11.928100000"><ele>443</ele><time>2015-05-14T15:01:34Z</time></trkpt><trkpt lat="49.738900000" lon="11.928016667"><ele>442</ele><time>2015-05-14T15:01:44Z</time></trkpt><trkpt lat="49.738783333" lon="11.927983333"><ele>442</ele><time>2015-05-14T15:01:54Z</time></trkpt><trkpt lat="49.738666667" lon="11.927883333"><ele>442</ele><time>2015-05-14T15:02:04Z</time></trkpt><trkpt lat="49.738566667" lon="11.927833333"><ele>442</ele><time>2015-05-14T15:02:14Z</time></trkpt><trkpt lat="49.738450000" lon="11.927766667"><ele>442</ele><time>2015-05-14T15:02:24Z</time></trkpt><trkpt lat="49.738333333" lon="11.927700000"><ele>441</ele><time>2015-05-14T15:02:34Z</time></trkpt><trkpt lat="49.738216667" lon="11.927633333"><ele>441</ele><time>2015-05-14T15:02:44Z</time></trkpt><trkpt lat="49.738100000" lon="11.927600000"><ele>440</ele><time>2015-05-14T15:02:54Z</time></trkpt><trkpt lat="49.737983333" lon="11.927516667"><ele>439</ele><time>2015-05-14T15:03:04Z</time></trkpt><trkpt lat="49.737850000" lon="11.927450000"><ele>440</ele><time>2015-05-14T15:03:14Z</time></trkpt><trkpt lat="49.737750000" lon="11.927400000"><ele>439</ele><time>2015-05-14T15:03:24Z</time></trkpt><trkpt lat="49.737633333" lon="11.927300000"><ele>439</ele><time>2015-05-14T15:03:34Z</time></trkpt><trkpt lat="49.737533333" lon="11.927200000"><ele>440</ele><time>2015-05-14T15:03:44Z</time></trkpt><trkpt lat="49.737433333" lon="11.927116667"><ele>441</ele><time>2015-05-14T15:03:54Z</time></trkpt><trkpt lat="49.737300000" lon="11.927133333"><ele>442</ele><time>2015-05-14T15:04:04Z</time></trkpt><trkpt lat="49.737183333" lon="11.927016667"><ele>443</ele><time>2015-05-14T15:04:14Z</time></trkpt><trkpt lat="49.737083333" lon="11.926933333"><ele>442</ele><time>2015-05-14T15:04:24Z</time></trkpt><trkpt lat="49.736933333" lon="11.926866667"><ele>441</ele><time>2015-05-14T15:04:34Z</time></trkpt><trkpt lat="49.736833333" lon="11.926766667"><ele>441</ele><time>2015-05-14T15:04:44Z</time></trkpt><trkpt lat="49.736716667" lon="11.926700000"><ele>439</ele><time>2015-05-14T15:04:54Z</time></trkpt><trkpt lat="49.736616667" lon="11.926566667"><ele>440</ele><time>2015-05-14T15:05:04Z</time></trkpt><trkpt lat="49.736533333" lon="11.926566667"><ele>440</ele><time>2015-05-14T15:05:14Z</time></trkpt><trkpt lat="49.736400000" lon="11.926450000"><ele>442</ele><time>2015-05-14T15:05:24Z</time></trkpt><trkpt lat="49.736350000" lon="11.926416667"><ele>444</ele><time>2015-05-14T15:05:34Z</time></trkpt><trkpt lat="49.736216667" lon="11.926416667"><ele>445</ele><time>2015-05-14T15:05:44Z</time></trkpt><trkpt lat="49.736050000" lon="11.926383333"><ele>446</ele><time>2015-05-14T15:05:54Z</time></trkpt><trkpt lat="49.735983333" lon="11.926333333"><ele>447</ele><time>2015-05-14T15:06:04Z</time></trkpt><trkpt lat="49.735883333" lon="11.926216667"><ele>447</ele><time>2015-05-14T15:06:14Z</time></trkpt><trkpt lat="49.735733333" lon="11.926200000"><ele>448</ele><time>2015-05-14T15:06:24Z</time></trkpt><trkpt lat="49.735666667" lon="11.926133333"><ele>450</ele><time>2015-05-14T15:06:34Z</time></trkpt><trkpt lat="49.735583333" lon="11.926083333"><ele>450</ele><time>2015-05-14T15:06:44Z</time></trkpt><trkpt lat="49.735483333" lon="11.925966667"><ele>451</ele><time>2015-05-14T15:06:54Z</time></trkpt><trkpt lat="49.735333333" lon="11.925966667"><ele>451</ele><time>2015-05-14T15:07:04Z</time></trkpt><trkpt lat="49.735233333" lon="11.925933333"><ele>453</ele><time>2015-05-14T15:07:14Z</time></trkpt><trkpt lat="49.735116667" lon="11.925900000"><ele>454</ele><time>2015-05-14T15:07:24Z</time></trkpt><trkpt lat="49.734983333" lon="11.925883333"><ele>455</ele><time>2015-05-14T15:07:34Z</time></trkpt><trkpt lat="49.734866667" lon="11.925850000"><ele>456</ele><time>2015-05-14T15:07:44Z</time></trkpt><trkpt lat="49.734733333" lon="11.925683333"><ele>456</ele><time>2015-05-14T15:07:54Z</time></trkpt><trkpt lat="49.734650000" lon="11.925716667"><ele>456</ele><time>2015-05-14T15:08:04Z</time></trkpt><trkpt lat="49.734516667" lon="11.925616667"><ele>456</ele><time>2015-05-14T15:08:14Z</time></trkpt><trkpt lat="49.734433333" lon="11.925566667"><ele>457</ele><time>2015-05-14T15:08:24Z</time></trkpt><trkpt lat="49.734283333" lon="11.925533333"><ele>459</ele><time>2015-05-14T15:08:34Z</time></trkpt><trkpt lat="49.734166667" lon="11.925633333"><ele>460</ele><time>2015-05-14T15:08:44Z</time></trkpt><trkpt lat="49.734100000" lon="11.925633333"><ele>460</ele><time>2015-05-14T15:08:54Z</time></trkpt><trkpt lat="49.733950000" lon="11.925600000"><ele>462</ele><time>2015-05-14T15:09:04Z</time></trkpt><trkpt lat="49.733816667" lon="11.925633333"><ele>463</ele><time>2015-05-14T15:09:14Z</time></trkpt><trkpt lat="49.733650000" lon="11.925533333"><ele>465</ele><time>2015-05-14T15:09:24Z</time></trkpt><trkpt lat="49.733533333" lon="11.925550000"><ele>465</ele><time>2015-05-14T15:09:34Z</time></trkpt><trkpt lat="49.733416667" lon="11.925483333"><ele>466</ele><time>2015-05-14T15:09:44Z</time></trkpt><trkpt lat="49.733316667" lon="11.925383333"><ele>466</ele><time>2015-05-14T15:09:54Z</time></trkpt><trkpt lat="49.733216667" lon="11.925266667"><ele>466</ele><time>2015-05-14T15:10:04Z</time></trkpt><trkpt lat="49.733083333" lon="11.925233333"><ele>465</ele><time>2015-05-14T15:10:14Z</time></trkpt><trkpt lat="49.733016667" lon="11.925116667"><ele>465</ele><time>2015-05-14T15:10:24Z</time></trkpt><trkpt lat="49.732866667" lon="11.925100000"><ele>465</ele><time>2015-05-14T15:10:34Z</time></trkpt><trkpt lat="49.732766667" lon="11.925000000"><ele>466</ele><time>2015-05-14T15:10:44Z</time></trkpt><trkpt lat="49.732666667" lon="11.924983333"><ele>466</ele><time>2015-05-14T15:10:54Z</time></trkpt><trkpt lat="49.732483333" lon="11.924966667"><ele>465</ele><time>2015-05-14T15:11:04Z</time></trkpt><trkpt lat="49.732383333" lon="11.924900000"><ele>466</ele><time>2015-05-14T15:11:14Z</time></trkpt><trkpt lat="49.732283333" lon="11.924850000"><ele>465</ele><time>2015-05-14T15:11:24Z</time></trkpt><trkpt lat="49.732100000" lon="11.924800000"><ele>464</ele><time>2015-05-14T15:11:34Z</time></trkpt><trkpt lat="49.732016667" lon="11.924800000"><ele>465</ele><time>2015-05-14T15:11:44Z</time></trkpt><trkpt lat="49.731883333" lon="11.924716667"><ele>465</ele><time>2015-05-14T15:11:54Z</time></trkpt><trkpt lat="49.731733333" lon="11.924650000"><ele>465</ele><time>2015-05-14T15:12:04Z</time></trkpt><trkpt lat="49.731616667" lon="11.924666667"><ele>464</ele><time>2015-05-14T15:12:14Z</time></trkpt><trkpt lat="49.731500000" lon="11.924550000"><ele>464</ele><time>2015-05-14T15:12:24Z</time></trkpt><trkpt lat="49.731383333" lon="11.924466667"><ele>463</ele><time>2015-05-14T15:12:34Z</time></trkpt><trkpt lat="49.731283333" lon="11.924383333"><ele>463</ele><time>2015-05-14T15:12:44Z</time></trkpt><trkpt lat="49.731150000" lon="11.924416667"><ele>462</ele><time>2015-05-14T15:12:54Z</time></trkpt><trkpt lat="49.731016667" lon="11.924366667"><ele>463</ele><time>2015-05-14T15:13:04Z</time></trkpt><trkpt lat="49.730900000" lon="11.924366667"><ele>462</ele><time>2015-05-14T15:13:14Z</time></trkpt><trkpt lat="49.730750000" lon="11.924333333"><ele>461</ele><time>2015-05-14T15:13:24Z</time></trkpt><trkpt lat="49.730616667" lon="11.924416667"><ele>459</ele><time>2015-05-14T15:13:34Z</time></trkpt><trkpt lat="49.730500000" lon="11.924533333"><ele>459</ele><time>2015-05-14T15:13:44Z</time></trkpt><trkpt lat="49.730383333" lon="11.924550000"><ele>458</ele><time>2015-05-14T15:13:54Z</time></trkpt><trkpt lat="49.730250000" lon="11.924516667"><ele>456</ele><time>2015-05-14T15:14:04Z</time></trkpt><trkpt lat="49.730133333" lon="11.924516667"><ele>455</ele><time>2015-05-14T15:14:14Z</time></trkpt><trkpt lat="49.730000000" lon="11.924533333"><ele>456</ele><time>2015-05-14T15:14:24Z</time></trkpt><trkpt lat="49.729883333" lon="11.924516667"><ele>455</ele><time>2015-05-14T15:14:34Z</time></trkpt><trkpt lat="49.729750000" lon="11.924483333"><ele>455</ele><time>2015-05-14T15:14:44Z</time></trkpt><trkpt lat="49.729633333" lon="11.924466667"><ele>453</ele><time>2015-05-14T15:14:54Z</time></trkpt><trkpt lat="49.729500000" lon="11.924433333"><ele>455</ele><time>2015-05-14T15:15:04Z</time></trkpt><trkpt lat="49.729366667" lon="11.924416667"><ele>455</ele><time>2015-05-14T15:15:14Z</time></trkpt><trkpt lat="49.729233333" lon="11.924416667"><ele>455</ele><time>2015-05-14T15:15:24Z</time></trkpt><trkpt lat="49.729116667" lon="11.924450000"><ele>456</ele><time>2015-05-14T15:15:34Z</time></trkpt><trkpt lat="49.729000000" lon="11.924450000"><ele>456</ele><time>2015-05-14T15:15:44Z</time></trkpt><trkpt lat="49.728866667" lon="11.924450000"><ele>456</ele><time>2015-05-14T15:15:54Z</time></trkpt><trkpt lat="49.728733333" lon="11.924433333"><ele>456</ele><time>2015-05-14T15:16:04Z</time></trkpt><trkpt lat="49.728616667" lon="11.924416667"><ele>456</ele><time>2015-05-14T15:16:14Z</time></trkpt><trkpt lat="49.728483333" lon="11.924416667"><ele>459</ele><time>2015-05-14T15:16:24Z</time></trkpt><trkpt lat="49.728350000" lon="11.924433333"><ele>458</ele><time>2015-05-14T15:16:34Z</time></trkpt><trkpt lat="49.728200000" lon="11.924450000"><ele>458</ele><time>2015-05-14T15:16:44Z</time></trkpt><trkpt lat="49.728083333" lon="11.924516667"><ele>459</ele><time>2015-05-14T15:16:54Z</time></trkpt><trkpt lat="49.727966667" lon="11.924550000"><ele>456</ele><time>2015-05-14T15:17:04Z</time></trkpt><trkpt lat="49.727883333" lon="11.924683333"><ele>457</ele><time>2015-05-14T15:17:14Z</time></trkpt><trkpt lat="49.727766667" lon="11.924683333"><ele>456</ele><time>2015-05-14T15:17:24Z</time></trkpt><trkpt lat="49.727633333" lon="11.924700000"><ele>455</ele><time>2015-05-14T15:17:34Z</time></trkpt><trkpt lat="49.727500000" lon="11.924716667"><ele>455</ele><time>2015-05-14T15:17:44Z</time></trkpt><trkpt lat="49.727366667" lon="11.924733333"><ele>456</ele><time>2015-05-14T15:17:54Z</time></trkpt><trkpt lat="49.727233333" lon="11.924766667"><ele>457</ele><time>2015-05-14T15:18:04Z</time></trkpt><trkpt lat="49.727100000" lon="11.924833333"><ele>457</ele><time>2015-05-14T15:18:14Z</time></trkpt><trkpt lat="49.726983333" lon="11.924866667"><ele>457</ele><time>2015-05-14T15:18:24Z</time></trkpt><trkpt lat="49.726833333" lon="11.924883333"><ele>458</ele><time>2015-05-14T15:18:34Z</time></trkpt><trkpt lat="49.726716667" lon="11.924866667"><ele>457</ele><time>2015-05-14T15:18:44Z</time></trkpt><trkpt lat="49.726600000" lon="11.924883333"><ele>456</ele><time>2015-05-14T15:18:54Z</time></trkpt><trkpt lat="49.726483333" lon="11.924916667"><ele>455</ele><time>2015-05-14T15:19:04Z</time></trkpt><trkpt lat="49.726366667" lon="11.924916667"><ele>454</ele><time>2015-05-14T15:19:14Z</time></trkpt><trkpt lat="49.726233333" lon="11.925000000"><ele>455</ele><time>2015-05-14T15:19:24Z</time></trkpt><trkpt lat="49.726150000" lon="11.925050000"><ele>455</ele><time>2015-05-14T15:19:34Z</time></trkpt><trkpt lat="49.726000000" lon="11.925116667"><ele>456</ele><time>2015-05-14T15:19:44Z</time></trkpt><trkpt lat="49.725850000" lon="11.925150000"><ele>455</ele><time>2015-05-14T15:19:54Z</time></trkpt><trkpt lat="49.725733333" lon="11.925133333"><ele>455</ele><time>2015-05-14T15:20:04Z</time></trkpt><trkpt lat="49.725616667" lon="11.925100000"><ele>454</ele><time>2015-05-14T15:20:14Z</time></trkpt><trkpt lat="49.725500000" lon="11.925100000"><ele>453</ele><time>2015-05-14T15:20:24Z</time></trkpt><trkpt lat="49.725366667" lon="11.925083333"><ele>453</ele><time>2015-05-14T15:20:34Z</time></trkpt><trkpt lat="49.725200000" lon="11.925083333"><ele>452</ele><time>2015-05-14T15:20:44Z</time></trkpt><trkpt lat="49.725100000" lon="11.925133333"><ele>452</ele><time>2015-05-14T15:20:54Z</time></trkpt><trkpt lat="49.724983333" lon="11.925166667"><ele>452</ele><time>2015-05-14T15:21:04Z</time></trkpt><trkpt lat="49.724850000" lon="11.925250000"><ele>452</ele><time>2015-05-14T15:21:14Z</time></trkpt><trkpt lat="49.724733333" lon="11.925250000"><ele>452</ele><time>2015-05-14T15:21:24Z</time></trkpt><trkpt lat="49.724616667" lon="11.925266667"><ele>452</ele><time>2015-05-14T15:21:34Z</time></trkpt><trkpt lat="49.724500000" lon="11.925300000"><ele>451</ele><time>2015-05-14T15:21:44Z</time></trkpt><trkpt lat="49.724383333" lon="11.925300000"><ele>452</ele><time>2015-05-14T15:21:54Z</time></trkpt><trkpt lat="49.724266667" lon="11.925266667"><ele>452</ele><time>2015-05-14T15:22:04Z</time></trkpt><trkpt lat="49.724150000" lon="11.925383333"><ele>451</ele><time>2015-05-14T15:22:14Z</time></trkpt><trkpt lat="49.724050000" lon="11.925250000"><ele>451</ele><time>2015-05-14T15:22:24Z</time></trkpt><trkpt lat="49.724016667" lon="11.925033333"><ele>450</ele><time>2015-05-14T15:22:34Z</time></trkpt><trkpt lat="49.723950000" lon="11.924900000"><ele>450</ele><time>2015-05-14T15:22:44Z</time></trkpt><trkpt lat="49.723933333" lon="11.924683333"><ele>450</ele><time>2015-05-14T15:22:54Z</time></trkpt><trkpt lat="49.723933333" lon="11.924483333"><ele>450</ele><time>2015-05-14T15:23:04Z</time></trkpt><trkpt lat="49.723966667" lon="11.924350000"><ele>450</ele><time>2015-05-14T15:23:14Z</time></trkpt><trkpt lat="49.723933333" lon="11.924250000"><ele>450</ele><time>2015-05-14T15:23:24Z</time></trkpt><trkpt lat="49.723950000" lon="11.924016667"><ele>450</ele><time>2015-05-14T15:23:34Z</time></trkpt><trkpt lat="49.723966667" lon="11.923766667"><ele>451</ele><time>2015-05-14T15:23:44Z</time></trkpt><trkpt lat="49.724016667" lon="11.923550000"><ele>452</ele><time>2015-05-14T15:23:54Z</time></trkpt><trkpt lat="49.724000000" lon="11.923333333"><ele>452</ele><time>2015-05-14T15:24:04Z</time></trkpt><trkpt lat="49.724000000" lon="11.923183333"><ele>453</ele><time>2015-05-14T15:24:14Z</time></trkpt><trkpt lat="49.723966667" lon="11.923000000"><ele>453</ele><time>2015-05-14T15:24:24Z</time></trkpt><trkpt lat="49.723900000" lon="11.922850000"><ele>452</ele><time>2015-05-14T15:24:34Z</time></trkpt><trkpt lat="49.723900000" lon="11.922666667"><ele>452</ele><time>2015-05-14T15:24:44Z</time></trkpt><trkpt lat="49.723833333" lon="11.922483333"><ele>452</ele><time>2015-05-14T15:24:54Z</time></trkpt><trkpt lat="49.723866667" lon="11.922316667"><ele>452</ele><time>2015-05-14T15:25:04Z</time></trkpt><trkpt lat="49.723816667" lon="11.922133333"><ele>452</ele><time>2015-05-14T15:25:14Z</time></trkpt><trkpt lat="49.723816667" lon="11.921916667"><ele>452</ele><time>2015-05-14T15:25:24Z</time></trkpt><trkpt lat="49.723866667" lon="11.921700000"><ele>452</ele><time>2015-05-14T15:25:34Z</time></trkpt><trkpt lat="49.723833333" lon="11.921550000"><ele>452</ele><time>2015-05-14T15:25:44Z</time></trkpt><trkpt lat="49.723833333" lon="11.921266667"><ele>452</ele><time>2015-05-14T15:25:54Z</time></trkpt><trkpt lat="49.723800000" lon="11.921166667"><ele>452</ele><time>2015-05-14T15:26:04Z</time></trkpt><trkpt lat="49.723883333" lon="11.920916667"><ele>451</ele><time>2015-05-14T15:26:14Z</time></trkpt><trkpt lat="49.723900000" lon="11.920716667"><ele>453</ele><time>2015-05-14T15:26:24Z</time></trkpt><trkpt lat="49.723916667" lon="11.920516667"><ele>452</ele><time>2015-05-14T15:26:34Z</time></trkpt><trkpt lat="49.723933333" lon="11.920350000"><ele>451</ele><time>2015-05-14T15:26:44Z</time></trkpt><trkpt lat="49.723950000" lon="11.920133333"><ele>450</ele><time>2015-05-14T15:26:54Z</time></trkpt><trkpt lat="49.723983333" lon="11.920000000"><ele>451</ele><time>2015-05-14T15:27:04Z</time></trkpt><trkpt lat="49.724033333" lon="11.919783333"><ele>450</ele><time>2015-05-14T15:27:14Z</time></trkpt><trkpt lat="49.724083333" lon="11.919533333"><ele>449</ele><time>2015-05-14T15:27:24Z</time></trkpt><trkpt lat="49.724083333" lon="11.919350000"><ele>449</ele><time>2015-05-14T15:27:34Z</time></trkpt><trkpt lat="49.724083333" lon="11.919183333"><ele>449</ele><time>2015-05-14T15:27:44Z</time></trkpt><trkpt lat="49.724050000" lon="11.918983333"><ele>449</ele><time>2015-05-14T15:27:54Z</time></trkpt><trkpt lat="49.724066667" lon="11.918833333"><ele>448</ele><time>2015-05-14T15:28:04Z</time></trkpt><trkpt lat="49.724016667" lon="11.918616667"><ele>448</ele><time>2015-05-14T15:28:14Z</time></trkpt><trkpt lat="49.724000000" lon="11.918383333"><ele>447</ele><time>2015-05-14T15:28:24Z</time></trkpt><trkpt lat="49.724050000" lon="11.918200000"><ele>447</ele><time>2015-05-14T15:28:34Z</time></trkpt><trkpt lat="49.724066667" lon="11.917916667"><ele>446</ele><time>2015-05-14T15:28:44Z</time></trkpt><trkpt lat="49.724066667" lon="11.917750000"><ele>445</ele><time>2015-05-14T15:28:54Z</time></trkpt><trkpt lat="49.724016667" lon="11.917583333"><ele>445</ele><time>2015-05-14T15:29:04Z</time></trkpt><trkpt lat="49.724016667" lon="11.917366667"><ele>442</ele><time>2015-05-14T15:29:14Z</time></trkpt><trkpt lat="49.724000000" lon="11.917200000"><ele>443</ele><time>2015-05-14T15:29:24Z</time></trkpt><trkpt lat="49.724033333" lon="11.917016667"><ele>436</ele><time>2015-05-14T15:29:34Z</time></trkpt><trkpt lat="49.724100000" lon="11.916850000"><ele>433</ele><time>2015-05-14T15:29:44Z</time></trkpt><trkpt lat="49.724183333" lon="11.916716667"><ele>430</ele><time>2015-05-14T15:29:54Z</time></trkpt><trkpt lat="49.724300000" lon="11.916583333"><ele>430</ele><time>2015-05-14T15:30:04Z</time></trkpt><trkpt lat="49.724400000" lon="11.916466667"><ele>429</ele><time>2015-05-14T15:30:14Z</time></trkpt><trkpt lat="49.724516667" lon="11.916366667"><ele>428</ele><time>2015-05-14T15:30:24Z</time></trkpt><trkpt lat="49.724616667" lon="11.916266667"><ele>427</ele><time>2015-05-14T15:30:34Z</time></trkpt><trkpt lat="49.724716667" lon="11.916183333"><ele>426</ele><time>2015-05-14T15:30:44Z</time></trkpt><trkpt lat="49.724816667" lon="11.916083333"><ele>426</ele><time>2015-05-14T15:30:54Z</time></trkpt><trkpt lat="49.724933333" lon="11.915983333"><ele>425</ele><time>2015-05-14T15:31:04Z</time></trkpt><trkpt lat="49.725033333" lon="11.915900000"><ele>424</ele><time>2015-05-14T15:31:14Z</time></trkpt><trkpt lat="49.725133333" lon="11.915800000"><ele>423</ele><time>2015-05-14T15:31:24Z</time></trkpt><trkpt lat="49.725116667" lon="11.915650000"><ele>423</ele><time>2015-05-14T15:31:34Z</time></trkpt><trkpt lat="49.725066667" lon="11.915483333"><ele>420</ele><time>2015-05-14T15:31:44Z</time></trkpt><trkpt lat="49.725000000" lon="11.915300000"><ele>423</ele><time>2015-05-14T15:31:54Z</time></trkpt><trkpt lat="49.724983333" lon="11.915100000"><ele>423</ele><time>2015-05-14T15:32:04Z</time></trkpt><trkpt lat="49.724950000" lon="11.914916667"><ele>421</ele><time>2015-05-14T15:32:14Z</time></trkpt><trkpt lat="49.724933333" lon="11.914766667"><ele>420</ele><time>2015-05-14T15:32:24Z</time></trkpt><trkpt lat="49.724916667" lon="11.914566667"><ele>421</ele><time>2015-05-14T15:32:34Z</time></trkpt><trkpt lat="49.724883333" lon="11.914383333"><ele>423</ele><time>2015-05-14T15:32:44Z</time></trkpt><trkpt lat="49.724866667" lon="11.914200000"><ele>427</ele><time>2015-05-14T15:32:54Z</time></trkpt><trkpt lat="49.724883333" lon="11.914000000"><ele>426</ele><time>2015-05-14T15:33:04Z</time></trkpt><trkpt lat="49.724866667" lon="11.913800000"><ele>431</ele><time>2015-05-14T15:33:14Z</time></trkpt><trkpt lat="49.724883333" lon="11.913600000"><ele>425</ele><time>2015-05-14T15:33:24Z</time></trkpt><trkpt lat="49.724900000" lon="11.913400000"><ele>425</ele><time>2015-05-14T15:33:34Z</time></trkpt><trkpt lat="49.724916667" lon="11.913216667"><ele>426</ele><time>2015-05-14T15:33:44Z</time></trkpt><trkpt lat="49.724916667" lon="11.913050000"><ele>421</ele><time>2015-05-14T15:33:54Z</time></trkpt><trkpt lat="49.724933333" lon="11.912850000"><ele>422</ele><time>2015-05-14T15:34:04Z</time></trkpt><trkpt lat="49.724900000" lon="11.912683333"><ele>424</ele><time>2015-05-14T15:34:14Z</time></trkpt><trkpt lat="49.724916667" lon="11.912466667"><ele>424</ele><time>2015-05-14T15:34:24Z</time></trkpt><trkpt lat="49.724933333" lon="11.912283333"><ele>422</ele><time>2015-05-14T15:34:34Z</time></trkpt><trkpt lat="49.724966667" lon="11.912083333"><ele>419</ele><time>2015-05-14T15:34:44Z</time></trkpt><trkpt lat="49.724966667" lon="11.911883333"><ele>418</ele><time>2015-05-14T15:34:54Z</time></trkpt><trkpt lat="49.724983333" lon="11.911716667"><ele>417</ele><time>2015-05-14T15:35:04Z</time></trkpt><trkpt lat="49.724966667" lon="11.911533333"><ele>417</ele><time>2015-05-14T15:35:14Z</time></trkpt><trkpt lat="49.725050000" lon="11.911383333"><ele>416</ele><time>2015-05-14T15:35:24Z</time></trkpt><trkpt lat="49.725150000" lon="11.911383333"><ele>416</ele><time>2015-05-14T15:35:34Z</time></trkpt><trkpt lat="49.725250000" lon="11.911500000"><ele>417</ele><time>2015-05-14T15:35:44Z</time></trkpt><trkpt lat="49.725383333" lon="11.911566667"><ele>419</ele><time>2015-05-14T15:35:54Z</time></trkpt><trkpt lat="49.725516667" lon="11.911533333"><ele>416</ele><time>2015-05-14T15:36:04Z</time></trkpt><trkpt lat="49.725550000" lon="11.911350000"><ele>417</ele><time>2015-05-14T15:36:14Z</time></trkpt><trkpt lat="49.725550000" lon="11.911150000"><ele>418</ele><time>2015-05-14T15:36:24Z</time></trkpt><trkpt lat="49.725583333" lon="11.910950000"><ele>416</ele><time>2015-05-14T15:36:34Z</time></trkpt><trkpt lat="49.725566667" lon="11.910750000"><ele>420</ele><time>2015-05-14T15:36:44Z</time></trkpt></trkseg></trk></gpx>